<?xml version="1.0" encoding="UTF-8" standalone="no" ?>
<gpx xmlns="http://www.topografix.com/GPX/1/1" xmlns:xsi="http://www.w3.org/2001/XMLSchema-instance" xsi:schemaLocation="http://www.topografix.com/GPX/1/1 http://www.topografix.com/GPX/1/1/gpx.xsd" version="1.1" creator="VisuGPX - https://www.visugpx.com">
  <metadata>
    <name>Petite boucle NLA Sud</name>
    <desc><![CDATA[Petite randonnée qui peut être faite en famille]]></desc>
  </metadata>
  <trk>
    <name><![CDATA[NLA petite boucle sud]]></name>
    <desc><![CDATA[(null)]]></desc>
    <trkseg>
      <trkpt lat="46.93849" lon="-0.59082">
        <ele>122</ele>
        <time>2012-02-12T10:10:32Z</time>
      </trkpt>
      <trkpt lat="46.93849" lon="-0.59082">
        <ele>122</ele>
        <time>2012-02-12T10:10:32Z</time>
      </trkpt>
      <trkpt lat="46.93887" lon="-0.59088">
        <ele>123</ele>
        <time>2012-02-12T10:10:40Z</time>
      </trkpt>
      <trkpt lat="46.93871" lon="-0.59082">
        <ele>120.189026</ele>
        <time>2012-02-12T10:10:43Z</time>
      </trkpt>
      <trkpt lat="46.93848" lon="-0.59082">
        <ele>-49.004601</ele>
        <time>2012-02-12T10:10:46Z</time>
      </trkpt>
      <trkpt lat="46.93848" lon="-0.59082">
        <ele>-49.004601</ele>
        <time>2012-02-12T10:10:48Z</time>
      </trkpt>
      <trkpt lat="46.93884" lon="-0.59092">
        <ele>117.995483</ele>
        <time>2012-02-12T10:10:57Z</time>
      </trkpt>
      <trkpt lat="46.93911" lon="-0.59081">
        <ele>135.995682</ele>
        <time>2012-02-12T10:11:16Z</time>
      </trkpt>
      <trkpt lat="46.93911" lon="-0.59081">
        <ele>135.995682</ele>
        <time>2012-02-12T10:11:20Z</time>
      </trkpt>
      <trkpt lat="46.9392" lon="-0.5908">
        <ele>135.995728</ele>
        <time>2012-02-12T10:11:21Z</time>
      </trkpt>
      <trkpt lat="46.9393" lon="-0.59082">
        <ele>134.995758</ele>
        <time>2012-02-12T10:11:27Z</time>
      </trkpt>
      <trkpt lat="46.9394" lon="-0.59083">
        <ele>133.995789</ele>
        <time>2012-02-12T10:11:34Z</time>
      </trkpt>
      <trkpt lat="46.9395" lon="-0.59086">
        <ele>132.995804</ele>
        <time>2012-02-12T10:11:40Z</time>
      </trkpt>
      <trkpt lat="46.9396" lon="-0.59089">
        <ele>132.995819</ele>
        <time>2012-02-12T10:11:45Z</time>
      </trkpt>
      <trkpt lat="46.93977" lon="-0.59094">
        <ele>129.99585</ele>
        <time>2012-02-12T10:11:55Z</time>
      </trkpt>
      <trkpt lat="46.93979" lon="-0.59094">
        <ele>129.99585</ele>
        <time>2012-02-12T10:11:56Z</time>
      </trkpt>
      <trkpt lat="46.93997" lon="-0.59096">
        <ele>127.995926</ele>
        <time>2012-02-12T10:12:06Z</time>
      </trkpt>
      <trkpt lat="46.94014" lon="-0.59099">
        <ele>126.995972</ele>
        <time>2012-02-12T10:12:19Z</time>
      </trkpt>
      <trkpt lat="46.94024" lon="-0.591">
        <ele>126.995987</ele>
        <time>2012-02-12T10:12:26Z</time>
      </trkpt>
      <trkpt lat="46.94034" lon="-0.59101">
        <ele>127.996033</ele>
        <time>2012-02-12T10:12:33Z</time>
      </trkpt>
      <trkpt lat="46.94043" lon="-0.59102">
        <ele>128.996078</ele>
        <time>2012-02-12T10:12:38Z</time>
      </trkpt>
      <trkpt lat="46.94055" lon="-0.59102">
        <ele>127.996124</ele>
        <time>2012-02-12T10:12:45Z</time>
      </trkpt>
      <trkpt lat="46.94059" lon="-0.59088">
        <ele>125.996246</ele>
        <time>2012-02-12T10:12:56Z</time>
      </trkpt>
      <trkpt lat="46.94057" lon="-0.59073">
        <ele>123.996361</ele>
        <time>2012-02-12T10:13:02Z</time>
      </trkpt>
      <trkpt lat="46.94053" lon="-0.59054">
        <ele>122.996475</ele>
        <time>2012-02-12T10:13:10Z</time>
      </trkpt>
      <trkpt lat="46.9405" lon="-0.5904">
        <ele>122.99659</ele>
        <time>2012-02-12T10:13:16Z</time>
      </trkpt>
      <trkpt lat="46.94046" lon="-0.59027">
        <ele>123.996681</ele>
        <time>2012-02-12T10:13:22Z</time>
      </trkpt>
      <trkpt lat="46.94044" lon="-0.59012">
        <ele>124.996796</ele>
        <time>2012-02-12T10:13:29Z</time>
      </trkpt>
      <trkpt lat="46.94041" lon="-0.58993">
        <ele>123.996933</ele>
        <time>2012-02-12T10:13:40Z</time>
      </trkpt>
      <trkpt lat="46.94038" lon="-0.58979">
        <ele>123.997025</ele>
        <time>2012-02-12T10:13:50Z</time>
      </trkpt>
      <trkpt lat="46.94034" lon="-0.58961">
        <ele>124.997154</ele>
        <time>2012-02-12T10:14:00Z</time>
      </trkpt>
      <trkpt lat="46.94031" lon="-0.58947">
        <ele>124.997261</ele>
        <time>2012-02-12T10:14:07Z</time>
      </trkpt>
      <trkpt lat="46.94026" lon="-0.58935">
        <ele>124.99733</ele>
        <time>2012-02-12T10:14:13Z</time>
      </trkpt>
      <trkpt lat="46.94023" lon="-0.58919">
        <ele>127.997437</ele>
        <time>2012-02-12T10:14:20Z</time>
      </trkpt>
      <trkpt lat="46.94021" lon="-0.58906">
        <ele>128.997528</ele>
        <time>2012-02-12T10:14:25Z</time>
      </trkpt>
      <trkpt lat="46.94019" lon="-0.58891">
        <ele>127.99765</ele>
        <time>2012-02-12T10:14:31Z</time>
      </trkpt>
      <trkpt lat="46.94016" lon="-0.58877">
        <ele>127.997749</ele>
        <time>2012-02-12T10:14:36Z</time>
      </trkpt>
      <trkpt lat="46.94014" lon="-0.58864">
        <ele>127.997864</ele>
        <time>2012-02-12T10:14:41Z</time>
      </trkpt>
      <trkpt lat="46.94012" lon="-0.5885">
        <ele>126.997955</ele>
        <time>2012-02-12T10:14:46Z</time>
      </trkpt>
      <trkpt lat="46.94009" lon="-0.58835">
        <ele>126.998055</ele>
        <time>2012-02-12T10:14:52Z</time>
      </trkpt>
      <trkpt lat="46.94005" lon="-0.58819">
        <ele>126.998177</ele>
        <time>2012-02-12T10:14:59Z</time>
      </trkpt>
      <trkpt lat="46.94001" lon="-0.58801">
        <ele>127.998299</ele>
        <time>2012-02-12T10:15:06Z</time>
      </trkpt>
      <trkpt lat="46.93997" lon="-0.58787">
        <ele>127.998413</ele>
        <time>2012-02-12T10:15:12Z</time>
      </trkpt>
      <trkpt lat="46.93994" lon="-0.58773">
        <ele>127.998497</ele>
        <time>2012-02-12T10:15:18Z</time>
      </trkpt>
      <trkpt lat="46.9399" lon="-0.58752">
        <ele>127.998642</ele>
        <time>2012-02-12T10:15:27Z</time>
      </trkpt>
      <trkpt lat="46.93986" lon="-0.5874">
        <ele>127.998718</ele>
        <time>2012-02-12T10:15:33Z</time>
      </trkpt>
      <trkpt lat="46.93984" lon="-0.58727">
        <ele>127.998825</ele>
        <time>2012-02-12T10:15:40Z</time>
      </trkpt>
      <trkpt lat="46.93979" lon="-0.58705">
        <ele>130.998993</ele>
        <time>2012-02-12T10:15:52Z</time>
      </trkpt>
      <trkpt lat="46.93976" lon="-0.58692">
        <ele>131.999084</ele>
        <time>2012-02-12T10:15:59Z</time>
      </trkpt>
      <trkpt lat="46.93976" lon="-0.5869">
        <ele>130.999084</ele>
        <time>2012-02-12T10:16:00Z</time>
      </trkpt>
      <trkpt lat="46.93974" lon="-0.58673">
        <ele>127.999222</ele>
        <time>2012-02-12T10:16:08Z</time>
      </trkpt>
      <trkpt lat="46.93969" lon="-0.5866">
        <ele>127.999298</ele>
        <time>2012-02-12T10:16:15Z</time>
      </trkpt>
      <trkpt lat="46.93965" lon="-0.58647">
        <ele>126.999382</ele>
        <time>2012-02-12T10:16:21Z</time>
      </trkpt>
      <trkpt lat="46.93959" lon="-0.58624">
        <ele>126.999542</ele>
        <time>2012-02-12T10:16:31Z</time>
      </trkpt>
      <trkpt lat="46.93952" lon="-0.58608">
        <ele>127.999649</ele>
        <time>2012-02-12T10:16:39Z</time>
      </trkpt>
      <trkpt lat="46.93943" lon="-0.58583">
        <ele>126.999809</ele>
        <time>2012-02-12T10:16:50Z</time>
      </trkpt>
      <trkpt lat="46.9394" lon="-0.5857">
        <ele>125.999886</ele>
        <time>2012-02-12T10:16:56Z</time>
      </trkpt>
      <trkpt lat="46.93936" lon="-0.58554">
        <ele>127.000015</ele>
        <time>2012-02-12T10:17:03Z</time>
      </trkpt>
      <trkpt lat="46.93931" lon="-0.58535">
        <ele>128.000153</ele>
        <time>2012-02-12T10:17:12Z</time>
      </trkpt>
      <trkpt lat="46.93924" lon="-0.58516">
        <ele>128.000259</ele>
        <time>2012-02-12T10:17:26Z</time>
      </trkpt>
      <trkpt lat="46.93919" lon="-0.58503">
        <ele>127.000351</ele>
        <time>2012-02-12T10:17:33Z</time>
      </trkpt>
      <trkpt lat="46.93914" lon="-0.58485">
        <ele>128.000473</ele>
        <time>2012-02-12T10:17:43Z</time>
      </trkpt>
      <trkpt lat="46.93912" lon="-0.58469">
        <ele>130.00058</ele>
        <time>2012-02-12T10:17:51Z</time>
      </trkpt>
      <trkpt lat="46.93912" lon="-0.58467">
        <ele>130.000595</ele>
        <time>2012-02-12T10:17:52Z</time>
      </trkpt>
      <trkpt lat="46.93906" lon="-0.58444">
        <ele>131.000763</ele>
        <time>2012-02-12T10:18:06Z</time>
      </trkpt>
      <trkpt lat="46.939" lon="-0.58427">
        <ele>132.000885</ele>
        <time>2012-02-12T10:18:12Z</time>
      </trkpt>
      <trkpt lat="46.93888" lon="-0.58388">
        <ele>130.001129</ele>
        <time>2012-02-12T10:18:25Z</time>
      </trkpt>
      <trkpt lat="46.93882" lon="-0.58374">
        <ele>131.001221</ele>
        <time>2012-02-12T10:18:30Z</time>
      </trkpt>
      <trkpt lat="46.93878" lon="-0.58362">
        <ele>131.001312</ele>
        <time>2012-02-12T10:18:36Z</time>
      </trkpt>
      <trkpt lat="46.93875" lon="-0.58349">
        <ele>131.001389</ele>
        <time>2012-02-12T10:18:41Z</time>
      </trkpt>
      <trkpt lat="46.93869" lon="-0.58331">
        <ele>131.001511</ele>
        <time>2012-02-12T10:18:48Z</time>
      </trkpt>
      <trkpt lat="46.93863" lon="-0.58317">
        <ele>131.001602</ele>
        <time>2012-02-12T10:18:54Z</time>
      </trkpt>
      <trkpt lat="46.93853" lon="-0.58295">
        <ele>129.00174</ele>
        <time>2012-02-12T10:19:03Z</time>
      </trkpt>
      <trkpt lat="46.93847" lon="-0.58283">
        <ele>129.001801</ele>
        <time>2012-02-12T10:19:08Z</time>
      </trkpt>
      <trkpt lat="46.93842" lon="-0.58267">
        <ele>129.001907</ele>
        <time>2012-02-12T10:19:15Z</time>
      </trkpt>
      <trkpt lat="46.93836" lon="-0.58254">
        <ele>129.001984</ele>
        <time>2012-02-12T10:19:22Z</time>
      </trkpt>
      <trkpt lat="46.9383" lon="-0.58243">
        <ele>129.002045</ele>
        <time>2012-02-12T10:19:28Z</time>
      </trkpt>
      <trkpt lat="46.93824" lon="-0.58231">
        <ele>129.002121</ele>
        <time>2012-02-12T10:19:35Z</time>
      </trkpt>
      <trkpt lat="46.93818" lon="-0.58219">
        <ele>130.002197</ele>
        <time>2012-02-12T10:19:41Z</time>
      </trkpt>
      <trkpt lat="46.93814" lon="-0.58209">
        <ele>129.002258</ele>
        <time>2012-02-12T10:19:47Z</time>
      </trkpt>
      <trkpt lat="46.9381" lon="-0.58196">
        <ele>127.00235</ele>
        <time>2012-02-12T10:19:53Z</time>
      </trkpt>
      <trkpt lat="46.93805" lon="-0.58183">
        <ele>127.002426</ele>
        <time>2012-02-12T10:19:59Z</time>
      </trkpt>
      <trkpt lat="46.93798" lon="-0.58164">
        <ele>128.002533</ele>
        <time>2012-02-12T10:20:08Z</time>
      </trkpt>
      <trkpt lat="46.93789" lon="-0.58143">
        <ele>127.002678</ele>
        <time>2012-02-12T10:20:18Z</time>
      </trkpt>
      <trkpt lat="46.93789" lon="-0.58141">
        <ele>127.002686</ele>
        <time>2012-02-12T10:20:20Z</time>
      </trkpt>
      <trkpt lat="46.93785" lon="-0.58129">
        <ele>127.002777</ele>
        <time>2012-02-12T10:20:25Z</time>
      </trkpt>
      <trkpt lat="46.9378" lon="-0.58118">
        <ele>126.002846</ele>
        <time>2012-02-12T10:20:32Z</time>
      </trkpt>
      <trkpt lat="46.93762" lon="-0.58085">
        <ele>123.003036</ele>
        <time>2012-02-12T10:20:54Z</time>
      </trkpt>
      <trkpt lat="46.93758" lon="-0.58074">
        <ele>122.003113</ele>
        <time>2012-02-12T10:21:00Z</time>
      </trkpt>
      <trkpt lat="46.93757" lon="-0.58071">
        <ele>121.00312</ele>
        <time>2012-02-12T10:21:02Z</time>
      </trkpt>
      <trkpt lat="46.93752" lon="-0.58058">
        <ele>121.003204</ele>
        <time>2012-02-12T10:21:07Z</time>
      </trkpt>
      <trkpt lat="46.93749" lon="-0.58049">
        <ele>121.003273</ele>
        <time>2012-02-12T10:21:10Z</time>
      </trkpt>
      <trkpt lat="46.93745" lon="-0.58036">
        <ele>122.003342</ele>
        <time>2012-02-12T10:21:15Z</time>
      </trkpt>
      <trkpt lat="46.93743" lon="-0.58031">
        <ele>123.003387</ele>
        <time>2012-02-12T10:21:17Z</time>
      </trkpt>
      <trkpt lat="46.93738" lon="-0.58012">
        <ele>122.003517</ele>
        <time>2012-02-12T10:21:28Z</time>
      </trkpt>
      <trkpt lat="46.93736" lon="-0.58007">
        <ele>122.003548</ele>
        <time>2012-02-12T10:21:31Z</time>
      </trkpt>
      <trkpt lat="46.93731" lon="-0.57993">
        <ele>120.003639</ele>
        <time>2012-02-12T10:21:36Z</time>
      </trkpt>
      <trkpt lat="46.9373" lon="-0.57991">
        <ele>120.003654</ele>
        <time>2012-02-12T10:21:40Z</time>
      </trkpt>
      <trkpt lat="46.93726" lon="-0.57979">
        <ele>119.003738</ele>
        <time>2012-02-12T10:21:43Z</time>
      </trkpt>
      <trkpt lat="46.93721" lon="-0.57966">
        <ele>119.003807</ele>
        <time>2012-02-12T10:21:50Z</time>
      </trkpt>
      <trkpt lat="46.93716" lon="-0.57955">
        <ele>117.003883</ele>
        <time>2012-02-12T10:22:00Z</time>
      </trkpt>
      <trkpt lat="46.93711" lon="-0.57938">
        <ele>117.003998</ele>
        <time>2012-02-12T10:22:08Z</time>
      </trkpt>
      <trkpt lat="46.93706" lon="-0.57922">
        <ele>117.004089</ele>
        <time>2012-02-12T10:22:15Z</time>
      </trkpt>
      <trkpt lat="46.93702" lon="-0.57909">
        <ele>117.004189</ele>
        <time>2012-02-12T10:22:21Z</time>
      </trkpt>
      <trkpt lat="46.93696" lon="-0.57891">
        <ele>116.004303</ele>
        <time>2012-02-12T10:22:30Z</time>
      </trkpt>
      <trkpt lat="46.93695" lon="-0.5789">
        <ele>116.004311</ele>
        <time>2012-02-12T10:22:33Z</time>
      </trkpt>
      <trkpt lat="46.9369" lon="-0.57878">
        <ele>117.004379</ele>
        <time>2012-02-12T10:22:37Z</time>
      </trkpt>
      <trkpt lat="46.93689" lon="-0.57875">
        <ele>117.00441</ele>
        <time>2012-02-12T10:22:39Z</time>
      </trkpt>
      <trkpt lat="46.93684" lon="-0.57862">
        <ele>116.004494</ele>
        <time>2012-02-12T10:22:46Z</time>
      </trkpt>
      <trkpt lat="46.93679" lon="-0.57847">
        <ele>116.004593</ele>
        <time>2012-02-12T10:22:55Z</time>
      </trkpt>
      <trkpt lat="46.93675" lon="-0.57837">
        <ele>114.004654</ele>
        <time>2012-02-12T10:23:01Z</time>
      </trkpt>
      <trkpt lat="46.93667" lon="-0.57821">
        <ele>115.004745</ele>
        <time>2012-02-12T10:23:07Z</time>
      </trkpt>
      <trkpt lat="46.93662" lon="-0.57809">
        <ele>115.004814</ele>
        <time>2012-02-12T10:23:12Z</time>
      </trkpt>
      <trkpt lat="46.93657" lon="-0.57797">
        <ele>115.004898</ele>
        <time>2012-02-12T10:23:18Z</time>
      </trkpt>
      <trkpt lat="46.93652" lon="-0.57784">
        <ele>114.004982</ele>
        <time>2012-02-12T10:23:23Z</time>
      </trkpt>
      <trkpt lat="46.93644" lon="-0.57768">
        <ele>113.005074</ele>
        <time>2012-02-12T10:23:30Z</time>
      </trkpt>
      <trkpt lat="46.93639" lon="-0.57756">
        <ele>113.005142</ele>
        <time>2012-02-12T10:23:36Z</time>
      </trkpt>
      <trkpt lat="46.93632" lon="-0.57739">
        <ele>115.005249</ele>
        <time>2012-02-12T10:23:43Z</time>
      </trkpt>
      <trkpt lat="46.93627" lon="-0.57728">
        <ele>114.005318</ele>
        <time>2012-02-12T10:23:50Z</time>
      </trkpt>
      <trkpt lat="46.93623" lon="-0.57715">
        <ele>114.005417</ele>
        <time>2012-02-12T10:23:54Z</time>
      </trkpt>
      <trkpt lat="46.93613" lon="-0.57693">
        <ele>114.005539</ele>
        <time>2012-02-12T10:24:06Z</time>
      </trkpt>
      <trkpt lat="46.93608" lon="-0.57676">
        <ele>114.005653</ele>
        <time>2012-02-12T10:24:16Z</time>
      </trkpt>
      <trkpt lat="46.936" lon="-0.57651">
        <ele>111.005821</ele>
        <time>2012-02-12T10:24:27Z</time>
      </trkpt>
      <trkpt lat="46.93595" lon="-0.57637">
        <ele>112.00592</ele>
        <time>2012-02-12T10:24:34Z</time>
      </trkpt>
      <trkpt lat="46.93592" lon="-0.57623">
        <ele>112.006012</ele>
        <time>2012-02-12T10:24:40Z</time>
      </trkpt>
      <trkpt lat="46.93589" lon="-0.57616">
        <ele>112.00605</ele>
        <time>2012-02-12T10:24:47Z</time>
      </trkpt>
      <trkpt lat="46.93584" lon="-0.57605">
        <ele>113.006142</ele>
        <time>2012-02-12T10:24:49Z</time>
      </trkpt>
      <trkpt lat="46.93583" lon="-0.57601">
        <ele>113.006157</ele>
        <time>2012-02-12T10:24:51Z</time>
      </trkpt>
      <trkpt lat="46.93577" lon="-0.57581">
        <ele>111.006287</ele>
        <time>2012-02-12T10:25:00Z</time>
      </trkpt>
      <trkpt lat="46.93572" lon="-0.57567">
        <ele>112.006371</ele>
        <time>2012-02-12T10:25:07Z</time>
      </trkpt>
      <trkpt lat="46.93569" lon="-0.5756">
        <ele>113.006424</ele>
        <time>2012-02-12T10:25:12Z</time>
      </trkpt>
      <trkpt lat="46.93559" lon="-0.57532">
        <ele>114.006607</ele>
        <time>2012-02-12T10:25:24Z</time>
      </trkpt>
      <trkpt lat="46.93558" lon="-0.5753">
        <ele>114.006622</ele>
        <time>2012-02-12T10:25:27Z</time>
      </trkpt>
      <trkpt lat="46.93558" lon="-0.57515">
        <ele>114.006737</ele>
        <time>2012-02-12T10:25:32Z</time>
      </trkpt>
      <trkpt lat="46.93556" lon="-0.57501">
        <ele>114.006836</ele>
        <time>2012-02-12T10:25:38Z</time>
      </trkpt>
      <trkpt lat="46.93555" lon="-0.57497">
        <ele>114.006866</ele>
        <time>2012-02-12T10:25:41Z</time>
      </trkpt>
      <trkpt lat="46.93552" lon="-0.57483">
        <ele>114.006981</ele>
        <time>2012-02-12T10:25:46Z</time>
      </trkpt>
      <trkpt lat="46.93549" lon="-0.57462">
        <ele>115.007111</ele>
        <time>2012-02-12T10:25:54Z</time>
      </trkpt>
      <trkpt lat="46.93545" lon="-0.5745">
        <ele>118.007202</ele>
        <time>2012-02-12T10:26:04Z</time>
      </trkpt>
      <trkpt lat="46.93545" lon="-0.57448">
        <ele>118.007217</ele>
        <time>2012-02-12T10:26:08Z</time>
      </trkpt>
      <trkpt lat="46.9354" lon="-0.57436">
        <ele>120.007294</ele>
        <time>2012-02-12T10:26:13Z</time>
      </trkpt>
      <trkpt lat="46.9354" lon="-0.57436">
        <ele>120.007294</ele>
        <time>2012-02-12T10:26:17Z</time>
      </trkpt>
      <trkpt lat="46.93537" lon="-0.57423">
        <ele>122.007385</ele>
        <time>2012-02-12T10:26:20Z</time>
      </trkpt>
      <trkpt lat="46.93532" lon="-0.57409">
        <ele>124.007469</ele>
        <time>2012-02-12T10:26:28Z</time>
      </trkpt>
      <trkpt lat="46.9353" lon="-0.57395">
        <ele>123.007568</ele>
        <time>2012-02-12T10:26:34Z</time>
      </trkpt>
      <trkpt lat="46.93529" lon="-0.57393">
        <ele>123.007584</ele>
        <time>2012-02-12T10:26:35Z</time>
      </trkpt>
      <trkpt lat="46.93525" lon="-0.5738">
        <ele>123.00769</ele>
        <time>2012-02-12T10:26:42Z</time>
      </trkpt>
      <trkpt lat="46.9352" lon="-0.57366">
        <ele>124.007774</ele>
        <time>2012-02-12T10:26:48Z</time>
      </trkpt>
      <trkpt lat="46.9352" lon="-0.57366">
        <ele>124.007774</ele>
        <time>2012-02-12T10:26:49Z</time>
      </trkpt>
      <trkpt lat="46.93514" lon="-0.57341">
        <ele>124.007942</ele>
        <time>2012-02-12T10:27:02Z</time>
      </trkpt>
      <trkpt lat="46.93513" lon="-0.57326">
        <ele>123.008064</ele>
        <time>2012-02-12T10:27:09Z</time>
      </trkpt>
      <trkpt lat="46.93512" lon="-0.5731">
        <ele>122.008179</ele>
        <time>2012-02-12T10:27:15Z</time>
      </trkpt>
      <trkpt lat="46.93509" lon="-0.57289">
        <ele>122.008339</ele>
        <time>2012-02-12T10:27:22Z</time>
      </trkpt>
      <trkpt lat="46.93508" lon="-0.57276">
        <ele>121.008438</ele>
        <time>2012-02-12T10:27:27Z</time>
      </trkpt>
      <trkpt lat="46.93505" lon="-0.57262">
        <ele>120.00853</ele>
        <time>2012-02-12T10:27:33Z</time>
      </trkpt>
      <trkpt lat="46.93504" lon="-0.5726">
        <ele>120.008545</ele>
        <time>2012-02-12T10:27:34Z</time>
      </trkpt>
      <trkpt lat="46.935" lon="-0.57243">
        <ele>120.008667</ele>
        <time>2012-02-12T10:27:43Z</time>
      </trkpt>
      <trkpt lat="46.93496" lon="-0.57228">
        <ele>120.008774</ele>
        <time>2012-02-12T10:27:52Z</time>
      </trkpt>
      <trkpt lat="46.93491" lon="-0.57208">
        <ele>119.008919</ele>
        <time>2012-02-12T10:28:03Z</time>
      </trkpt>
      <trkpt lat="46.93485" lon="-0.57188">
        <ele>119.009048</ele>
        <time>2012-02-12T10:28:13Z</time>
      </trkpt>
      <trkpt lat="46.93482" lon="-0.57174">
        <ele>118.009155</ele>
        <time>2012-02-12T10:28:19Z</time>
      </trkpt>
      <trkpt lat="46.93479" lon="-0.57161">
        <ele>118.009232</ele>
        <time>2012-02-12T10:28:25Z</time>
      </trkpt>
      <trkpt lat="46.93475" lon="-0.57145">
        <ele>118.009354</ele>
        <time>2012-02-12T10:28:33Z</time>
      </trkpt>
      <trkpt lat="46.93469" lon="-0.57115">
        <ele>118.009567</ele>
        <time>2012-02-12T10:28:48Z</time>
      </trkpt>
      <trkpt lat="46.93466" lon="-0.57101">
        <ele>116.009674</ele>
        <time>2012-02-12T10:28:56Z</time>
      </trkpt>
      <trkpt lat="46.93465" lon="-0.57098">
        <ele>116.009682</ele>
        <time>2012-02-12T10:28:57Z</time>
      </trkpt>
      <trkpt lat="46.93457" lon="-0.57077">
        <ele>117.009811</ele>
        <time>2012-02-12T10:29:09Z</time>
      </trkpt>
      <trkpt lat="46.93456" lon="-0.57076">
        <ele>117.009827</ele>
        <time>2012-02-12T10:29:12Z</time>
      </trkpt>
      <trkpt lat="46.9344" lon="-0.5707">
        <ele>117.009804</ele>
        <time>2012-02-12T10:29:21Z</time>
      </trkpt>
      <trkpt lat="46.93421" lon="-0.57059">
        <ele>120.009796</ele>
        <time>2012-02-12T10:29:33Z</time>
      </trkpt>
      <trkpt lat="46.93409" lon="-0.57053">
        <ele>122.009804</ele>
        <time>2012-02-12T10:29:39Z</time>
      </trkpt>
      <trkpt lat="46.93393" lon="-0.57041">
        <ele>122.009827</ele>
        <time>2012-02-12T10:29:51Z</time>
      </trkpt>
      <trkpt lat="46.93384" lon="-0.5704">
        <ele>122.009811</ele>
        <time>2012-02-12T10:29:59Z</time>
      </trkpt>
      <trkpt lat="46.93371" lon="-0.57042">
        <ele>123.00972</ele>
        <time>2012-02-12T10:30:07Z</time>
      </trkpt>
      <trkpt lat="46.93361" lon="-0.57045">
        <ele>123.009659</ele>
        <time>2012-02-12T10:30:12Z</time>
      </trkpt>
      <trkpt lat="46.93352" lon="-0.57048">
        <ele>123.009613</ele>
        <time>2012-02-12T10:30:16Z</time>
      </trkpt>
      <trkpt lat="46.93342" lon="-0.5705">
        <ele>123.009537</ele>
        <time>2012-02-12T10:30:21Z</time>
      </trkpt>
      <trkpt lat="46.93342" lon="-0.5705">
        <ele>123.009537</ele>
        <time>2012-02-12T10:30:22Z</time>
      </trkpt>
      <trkpt lat="46.93327" lon="-0.57049">
        <ele>123.009491</ele>
        <time>2012-02-12T10:30:32Z</time>
      </trkpt>
      <trkpt lat="46.93313" lon="-0.57048">
        <ele>124.009445</ele>
        <time>2012-02-12T10:30:41Z</time>
      </trkpt>
      <trkpt lat="46.93304" lon="-0.57047">
        <ele>125.009407</ele>
        <time>2012-02-12T10:30:48Z</time>
      </trkpt>
      <trkpt lat="46.93291" lon="-0.5705">
        <ele>125.009315</ele>
        <time>2012-02-12T10:30:57Z</time>
      </trkpt>
      <trkpt lat="46.93281" lon="-0.57053">
        <ele>126.009262</ele>
        <time>2012-02-12T10:31:05Z</time>
      </trkpt>
      <trkpt lat="46.93271" lon="-0.57056">
        <ele>125.009186</ele>
        <time>2012-02-12T10:31:10Z</time>
      </trkpt>
      <trkpt lat="46.93261" lon="-0.57061">
        <ele>125.009117</ele>
        <time>2012-02-12T10:31:15Z</time>
      </trkpt>
      <trkpt lat="46.93249" lon="-0.57068">
        <ele>122.009003</ele>
        <time>2012-02-12T10:31:22Z</time>
      </trkpt>
      <trkpt lat="46.93237" lon="-0.57068">
        <ele>121.008957</ele>
        <time>2012-02-12T10:31:32Z</time>
      </trkpt>
      <trkpt lat="46.93236" lon="-0.57067">
        <ele>121.008949</ele>
        <time>2012-02-12T10:31:33Z</time>
      </trkpt>
      <trkpt lat="46.93227" lon="-0.57057">
        <ele>121.009003</ele>
        <time>2012-02-12T10:31:42Z</time>
      </trkpt>
      <trkpt lat="46.93221" lon="-0.57043">
        <ele>119.009079</ele>
        <time>2012-02-12T10:31:50Z</time>
      </trkpt>
      <trkpt lat="46.93216" lon="-0.57029">
        <ele>120.009163</ele>
        <time>2012-02-12T10:31:59Z</time>
      </trkpt>
      <trkpt lat="46.93207" lon="-0.57014">
        <ele>118.009247</ele>
        <time>2012-02-12T10:32:11Z</time>
      </trkpt>
      <trkpt lat="46.93198" lon="-0.57014">
        <ele>119.009216</ele>
        <time>2012-02-12T10:32:20Z</time>
      </trkpt>
      <trkpt lat="46.9319" lon="-0.5702">
        <ele>119.009132</ele>
        <time>2012-02-12T10:32:27Z</time>
      </trkpt>
      <trkpt lat="46.93182" lon="-0.57029">
        <ele>119.009033</ele>
        <time>2012-02-12T10:32:33Z</time>
      </trkpt>
      <trkpt lat="46.93174" lon="-0.57039">
        <ele>120.008911</ele>
        <time>2012-02-12T10:32:40Z</time>
      </trkpt>
      <trkpt lat="46.93173" lon="-0.57041">
        <ele>120.008896</ele>
        <time>2012-02-12T10:32:41Z</time>
      </trkpt>
      <trkpt lat="46.93153" lon="-0.57067">
        <ele>117.008591</ele>
        <time>2012-02-12T10:33:04Z</time>
      </trkpt>
      <trkpt lat="46.93148" lon="-0.57072">
        <ele>118.008545</ele>
        <time>2012-02-12T10:33:11Z</time>
      </trkpt>
      <trkpt lat="46.93141" lon="-0.57082">
        <ele>119.008438</ele>
        <time>2012-02-12T10:33:15Z</time>
      </trkpt>
      <trkpt lat="46.93133" lon="-0.57091">
        <ele>120.008324</ele>
        <time>2012-02-12T10:33:21Z</time>
      </trkpt>
      <trkpt lat="46.9313" lon="-0.57096">
        <ele>120.008263</ele>
        <time>2012-02-12T10:33:24Z</time>
      </trkpt>
      <trkpt lat="46.93114" lon="-0.57113">
        <ele>124.008057</ele>
        <time>2012-02-12T10:33:36Z</time>
      </trkpt>
      <trkpt lat="46.93112" lon="-0.57114">
        <ele>124.008057</ele>
        <time>2012-02-12T10:33:37Z</time>
      </trkpt>
      <trkpt lat="46.93103" lon="-0.57119">
        <ele>125.007965</ele>
        <time>2012-02-12T10:33:43Z</time>
      </trkpt>
      <trkpt lat="46.93091" lon="-0.57129">
        <ele>123.007843</ele>
        <time>2012-02-12T10:33:53Z</time>
      </trkpt>
      <trkpt lat="46.93088" lon="-0.57131">
        <ele>121.00782</ele>
        <time>2012-02-12T10:33:56Z</time>
      </trkpt>
      <trkpt lat="46.93081" lon="-0.57138">
        <ele>119.007721</ele>
        <time>2012-02-12T10:34:03Z</time>
      </trkpt>
      <trkpt lat="46.93072" lon="-0.57144">
        <ele>118.007637</ele>
        <time>2012-02-12T10:34:11Z</time>
      </trkpt>
      <trkpt lat="46.93058" lon="-0.57154">
        <ele>117.0075</ele>
        <time>2012-02-12T10:34:21Z</time>
      </trkpt>
      <trkpt lat="46.93049" lon="-0.57161">
        <ele>116.007401</ele>
        <time>2012-02-12T10:34:29Z</time>
      </trkpt>
      <trkpt lat="46.9304" lon="-0.57166">
        <ele>116.007332</ele>
        <time>2012-02-12T10:34:37Z</time>
      </trkpt>
      <trkpt lat="46.93031" lon="-0.57171">
        <ele>115.007248</ele>
        <time>2012-02-12T10:34:44Z</time>
      </trkpt>
      <trkpt lat="46.9302" lon="-0.57178">
        <ele>114.007156</ele>
        <time>2012-02-12T10:34:54Z</time>
      </trkpt>
      <trkpt lat="46.93018" lon="-0.57178">
        <ele>114.007133</ele>
        <time>2012-02-12T10:34:57Z</time>
      </trkpt>
      <trkpt lat="46.93009" lon="-0.57184">
        <ele>115.00705</ele>
        <time>2012-02-12T10:35:05Z</time>
      </trkpt>
      <trkpt lat="46.93005" lon="-0.57186">
        <ele>114.007019</ele>
        <time>2012-02-12T10:35:09Z</time>
      </trkpt>
      <trkpt lat="46.92988" lon="-0.57196">
        <ele>115.006866</ele>
        <time>2012-02-12T10:35:21Z</time>
      </trkpt>
      <trkpt lat="46.92982" lon="-0.572">
        <ele>115.006813</ele>
        <time>2012-02-12T10:35:25Z</time>
      </trkpt>
      <trkpt lat="46.92959" lon="-0.57211">
        <ele>116.006622</ele>
        <time>2012-02-12T10:35:37Z</time>
      </trkpt>
      <trkpt lat="46.92957" lon="-0.57212">
        <ele>115.006599</ele>
        <time>2012-02-12T10:35:38Z</time>
      </trkpt>
      <trkpt lat="46.92947" lon="-0.57214">
        <ele>113.006546</ele>
        <time>2012-02-12T10:35:43Z</time>
      </trkpt>
      <trkpt lat="46.92937" lon="-0.57218">
        <ele>112.00647</ele>
        <time>2012-02-12T10:35:49Z</time>
      </trkpt>
      <trkpt lat="46.92923" lon="-0.57229">
        <ele>113.006317</ele>
        <time>2012-02-12T10:36:01Z</time>
      </trkpt>
      <trkpt lat="46.92916" lon="-0.57238">
        <ele>114.006226</ele>
        <time>2012-02-12T10:36:09Z</time>
      </trkpt>
      <trkpt lat="46.92906" lon="-0.57248">
        <ele>118.006088</ele>
        <time>2012-02-12T10:36:18Z</time>
      </trkpt>
      <trkpt lat="46.92898" lon="-0.57257">
        <ele>120.005997</ele>
        <time>2012-02-12T10:36:25Z</time>
      </trkpt>
      <trkpt lat="46.92887" lon="-0.57272">
        <ele>120.005829</ele>
        <time>2012-02-12T10:36:37Z</time>
      </trkpt>
      <trkpt lat="46.92886" lon="-0.57273">
        <ele>120.005806</ele>
        <time>2012-02-12T10:36:38Z</time>
      </trkpt>
      <trkpt lat="46.92878" lon="-0.57284">
        <ele>120.005699</ele>
        <time>2012-02-12T10:36:46Z</time>
      </trkpt>
      <trkpt lat="46.92872" lon="-0.57294">
        <ele>122.005577</ele>
        <time>2012-02-12T10:36:54Z</time>
      </trkpt>
      <trkpt lat="46.92864" lon="-0.57303">
        <ele>123.005486</ele>
        <time>2012-02-12T10:37:02Z</time>
      </trkpt>
      <trkpt lat="46.92863" lon="-0.57305">
        <ele>123.005463</ele>
        <time>2012-02-12T10:37:04Z</time>
      </trkpt>
      <trkpt lat="46.92856" lon="-0.57314">
        <ele>123.005356</ele>
        <time>2012-02-12T10:37:10Z</time>
      </trkpt>
      <trkpt lat="46.92844" lon="-0.57327">
        <ele>125.005203</ele>
        <time>2012-02-12T10:37:20Z</time>
      </trkpt>
      <trkpt lat="46.92836" lon="-0.57335">
        <ele>125.005104</ele>
        <time>2012-02-12T10:37:26Z</time>
      </trkpt>
      <trkpt lat="46.92833" lon="-0.57337">
        <ele>125.005081</ele>
        <time>2012-02-12T10:37:28Z</time>
      </trkpt>
      <trkpt lat="46.92825" lon="-0.57343">
        <ele>126.005005</ele>
        <time>2012-02-12T10:37:34Z</time>
      </trkpt>
      <trkpt lat="46.92817" lon="-0.57349">
        <ele>127.004913</ele>
        <time>2012-02-12T10:37:40Z</time>
      </trkpt>
      <trkpt lat="46.92808" lon="-0.57355">
        <ele>127.004822</ele>
        <time>2012-02-12T10:37:47Z</time>
      </trkpt>
      <trkpt lat="46.92799" lon="-0.57361">
        <ele>128.00473</ele>
        <time>2012-02-12T10:37:54Z</time>
      </trkpt>
      <trkpt lat="46.9279" lon="-0.57366">
        <ele>125.004669</ele>
        <time>2012-02-12T10:38:01Z</time>
      </trkpt>
      <trkpt lat="46.92781" lon="-0.57372">
        <ele>125.004578</ele>
        <time>2012-02-12T10:38:08Z</time>
      </trkpt>
      <trkpt lat="46.92772" lon="-0.57377">
        <ele>125.004501</ele>
        <time>2012-02-12T10:38:15Z</time>
      </trkpt>
      <trkpt lat="46.92762" lon="-0.57383">
        <ele>125.00441</ele>
        <time>2012-02-12T10:38:22Z</time>
      </trkpt>
      <trkpt lat="46.92758" lon="-0.57385">
        <ele>126.004379</ele>
        <time>2012-02-12T10:38:25Z</time>
      </trkpt>
      <trkpt lat="46.92749" lon="-0.57392">
        <ele>127.00428</ele>
        <time>2012-02-12T10:38:32Z</time>
      </trkpt>
      <trkpt lat="46.9274" lon="-0.57395">
        <ele>129.004211</ele>
        <time>2012-02-12T10:38:39Z</time>
      </trkpt>
      <trkpt lat="46.92738" lon="-0.57396">
        <ele>130.004211</ele>
        <time>2012-02-12T10:38:41Z</time>
      </trkpt>
      <trkpt lat="46.92729" lon="-0.574">
        <ele>130.004135</ele>
        <time>2012-02-12T10:38:48Z</time>
      </trkpt>
      <trkpt lat="46.92722" lon="-0.57404">
        <ele>130.004074</ele>
        <time>2012-02-12T10:38:57Z</time>
      </trkpt>
      <trkpt lat="46.9271" lon="-0.57409">
        <ele>130.003967</ele>
        <time>2012-02-12T10:39:03Z</time>
      </trkpt>
      <trkpt lat="46.92701" lon="-0.57414">
        <ele>130.003891</ele>
        <time>2012-02-12T10:39:09Z</time>
      </trkpt>
      <trkpt lat="46.92692" lon="-0.57418">
        <ele>130.003815</ele>
        <time>2012-02-12T10:39:15Z</time>
      </trkpt>
      <trkpt lat="46.92683" lon="-0.57422">
        <ele>128.003754</ele>
        <time>2012-02-12T10:39:21Z</time>
      </trkpt>
      <trkpt lat="46.92682" lon="-0.57423">
        <ele>128.003754</ele>
        <time>2012-02-12T10:39:22Z</time>
      </trkpt>
      <trkpt lat="46.92672" lon="-0.5743">
        <ele>128.003647</ele>
        <time>2012-02-12T10:39:29Z</time>
      </trkpt>
      <trkpt lat="46.92663" lon="-0.57439">
        <ele>127.003525</ele>
        <time>2012-02-12T10:39:37Z</time>
      </trkpt>
      <trkpt lat="46.92655" lon="-0.57447">
        <ele>127.003433</ele>
        <time>2012-02-12T10:39:44Z</time>
      </trkpt>
      <trkpt lat="46.92646" lon="-0.57461">
        <ele>125.003288</ele>
        <time>2012-02-12T10:39:55Z</time>
      </trkpt>
      <trkpt lat="46.92638" lon="-0.5747">
        <ele>124.003174</ele>
        <time>2012-02-12T10:40:03Z</time>
      </trkpt>
      <trkpt lat="46.92637" lon="-0.57471">
        <ele>124.003174</ele>
        <time>2012-02-12T10:40:04Z</time>
      </trkpt>
      <trkpt lat="46.92627" lon="-0.57473">
        <ele>122.003105</ele>
        <time>2012-02-12T10:40:11Z</time>
      </trkpt>
      <trkpt lat="46.92613" lon="-0.57471">
        <ele>120.003067</ele>
        <time>2012-02-12T10:40:20Z</time>
      </trkpt>
      <trkpt lat="46.92603" lon="-0.57467">
        <ele>120.003067</ele>
        <time>2012-02-12T10:40:26Z</time>
      </trkpt>
      <trkpt lat="46.92593" lon="-0.57462">
        <ele>120.003052</ele>
        <time>2012-02-12T10:40:32Z</time>
      </trkpt>
      <trkpt lat="46.92585" lon="-0.57458">
        <ele>120.003059</ele>
        <time>2012-02-12T10:40:38Z</time>
      </trkpt>
      <trkpt lat="46.92575" lon="-0.57449">
        <ele>119.003082</ele>
        <time>2012-02-12T10:40:46Z</time>
      </trkpt>
      <trkpt lat="46.92574" lon="-0.57448">
        <ele>119.00309</ele>
        <time>2012-02-12T10:40:48Z</time>
      </trkpt>
      <trkpt lat="46.92565" lon="-0.5744">
        <ele>119.003113</ele>
        <time>2012-02-12T10:40:54Z</time>
      </trkpt>
      <trkpt lat="46.92557" lon="-0.57432">
        <ele>119.003143</ele>
        <time>2012-02-12T10:41:00Z</time>
      </trkpt>
      <trkpt lat="46.92549" lon="-0.57423">
        <ele>119.003181</ele>
        <time>2012-02-12T10:41:07Z</time>
      </trkpt>
      <trkpt lat="46.9254" lon="-0.57418">
        <ele>119.003189</ele>
        <time>2012-02-12T10:41:14Z</time>
      </trkpt>
      <trkpt lat="46.92532" lon="-0.57427">
        <ele>117.003082</ele>
        <time>2012-02-12T10:41:22Z</time>
      </trkpt>
      <trkpt lat="46.92529" lon="-0.57435">
        <ele>115.002991</ele>
        <time>2012-02-12T10:41:28Z</time>
      </trkpt>
      <trkpt lat="46.92526" lon="-0.57447">
        <ele>113.002884</ele>
        <time>2012-02-12T10:41:34Z</time>
      </trkpt>
      <trkpt lat="46.92526" lon="-0.57447">
        <ele>113.002884</ele>
        <time>2012-02-12T10:41:35Z</time>
      </trkpt>
      <trkpt lat="46.92523" lon="-0.5746">
        <ele>114.002762</ele>
        <time>2012-02-12T10:41:44Z</time>
      </trkpt>
      <trkpt lat="46.92518" lon="-0.57473">
        <ele>113.002655</ele>
        <time>2012-02-12T10:41:51Z</time>
      </trkpt>
      <trkpt lat="46.92513" lon="-0.57485">
        <ele>113.002548</ele>
        <time>2012-02-12T10:41:57Z</time>
      </trkpt>
      <trkpt lat="46.92508" lon="-0.57496">
        <ele>113.002426</ele>
        <time>2012-02-12T10:42:03Z</time>
      </trkpt>
      <trkpt lat="46.92503" lon="-0.57511">
        <ele>113.002289</ele>
        <time>2012-02-12T10:42:11Z</time>
      </trkpt>
      <trkpt lat="46.92493" lon="-0.57533">
        <ele>115.00206</ele>
        <time>2012-02-12T10:42:22Z</time>
      </trkpt>
      <trkpt lat="46.92483" lon="-0.5754">
        <ele>115.001953</ele>
        <time>2012-02-12T10:42:30Z</time>
      </trkpt>
      <trkpt lat="46.92471" lon="-0.57542">
        <ele>117.001892</ele>
        <time>2012-02-12T10:42:39Z</time>
      </trkpt>
      <trkpt lat="46.92461" lon="-0.57542">
        <ele>118.001862</ele>
        <time>2012-02-12T10:42:46Z</time>
      </trkpt>
      <trkpt lat="46.92451" lon="-0.57542">
        <ele>119.001816</ele>
        <time>2012-02-12T10:42:53Z</time>
      </trkpt>
      <trkpt lat="46.92439" lon="-0.57544">
        <ele>122.00174</ele>
        <time>2012-02-12T10:43:02Z</time>
      </trkpt>
      <trkpt lat="46.92428" lon="-0.57548">
        <ele>121.001663</ele>
        <time>2012-02-12T10:43:11Z</time>
      </trkpt>
      <trkpt lat="46.92418" lon="-0.57553">
        <ele>123.001587</ele>
        <time>2012-02-12T10:43:18Z</time>
      </trkpt>
      <trkpt lat="46.92412" lon="-0.57562">
        <ele>124.001488</ele>
        <time>2012-02-12T10:43:24Z</time>
      </trkpt>
      <trkpt lat="46.92406" lon="-0.57574">
        <ele>124.001373</ele>
        <time>2012-02-12T10:43:30Z</time>
      </trkpt>
      <trkpt lat="46.92402" lon="-0.57591">
        <ele>126.001213</ele>
        <time>2012-02-12T10:43:38Z</time>
      </trkpt>
      <trkpt lat="46.92397" lon="-0.57612">
        <ele>123.00103</ele>
        <time>2012-02-12T10:43:48Z</time>
      </trkpt>
      <trkpt lat="46.92394" lon="-0.5763">
        <ele>121.000862</ele>
        <time>2012-02-12T10:43:57Z</time>
      </trkpt>
      <trkpt lat="46.92392" lon="-0.57645">
        <ele>120.000748</ele>
        <time>2012-02-12T10:44:04Z</time>
      </trkpt>
      <trkpt lat="46.9239" lon="-0.57663">
        <ele>122.00058</ele>
        <time>2012-02-12T10:44:14Z</time>
      </trkpt>
      <trkpt lat="46.92388" lon="-0.57677">
        <ele>124.000465</ele>
        <time>2012-02-12T10:44:21Z</time>
      </trkpt>
      <trkpt lat="46.92387" lon="-0.5769">
        <ele>123.000359</ele>
        <time>2012-02-12T10:44:28Z</time>
      </trkpt>
      <trkpt lat="46.92385" lon="-0.57705">
        <ele>122.000229</ele>
        <time>2012-02-12T10:44:35Z</time>
      </trkpt>
      <trkpt lat="46.9238" lon="-0.57724">
        <ele>121.000053</ele>
        <time>2012-02-12T10:44:45Z</time>
      </trkpt>
      <trkpt lat="46.9238" lon="-0.57726">
        <ele>121.000046</ele>
        <time>2012-02-12T10:44:46Z</time>
      </trkpt>
      <trkpt lat="46.92375" lon="-0.57737">
        <ele>120.999924</ele>
        <time>2012-02-12T10:44:53Z</time>
      </trkpt>
      <trkpt lat="46.92368" lon="-0.57747">
        <ele>121.999817</ele>
        <time>2012-02-12T10:45:00Z</time>
      </trkpt>
      <trkpt lat="46.9236" lon="-0.57758">
        <ele>121.999695</ele>
        <time>2012-02-12T10:45:09Z</time>
      </trkpt>
      <trkpt lat="46.92352" lon="-0.57766">
        <ele>123.999596</ele>
        <time>2012-02-12T10:45:17Z</time>
      </trkpt>
      <trkpt lat="46.92357" lon="-0.57778">
        <ele>127.999527</ele>
        <time>2012-02-12T10:45:26Z</time>
      </trkpt>
      <trkpt lat="46.92366" lon="-0.57787">
        <ele>129.999481</ele>
        <time>2012-02-12T10:45:32Z</time>
      </trkpt>
      <trkpt lat="46.92376" lon="-0.57794">
        <ele>130.999481</ele>
        <time>2012-02-12T10:45:39Z</time>
      </trkpt>
      <trkpt lat="46.92384" lon="-0.57801">
        <ele>130.999451</ele>
        <time>2012-02-12T10:45:45Z</time>
      </trkpt>
      <trkpt lat="46.92396" lon="-0.57811">
        <ele>131.99942</ele>
        <time>2012-02-12T10:45:54Z</time>
      </trkpt>
      <trkpt lat="46.92405" lon="-0.57818">
        <ele>130.99942</ele>
        <time>2012-02-12T10:46:01Z</time>
      </trkpt>
      <trkpt lat="46.92414" lon="-0.57824">
        <ele>128.999405</ele>
        <time>2012-02-12T10:46:08Z</time>
      </trkpt>
      <trkpt lat="46.92424" lon="-0.57829">
        <ele>130.99939</ele>
        <time>2012-02-12T10:46:15Z</time>
      </trkpt>
      <trkpt lat="46.92432" lon="-0.57834">
        <ele>132.999405</ele>
        <time>2012-02-12T10:46:21Z</time>
      </trkpt>
      <trkpt lat="46.92441" lon="-0.57839">
        <ele>133.99939</ele>
        <time>2012-02-12T10:46:28Z</time>
      </trkpt>
      <trkpt lat="46.9245" lon="-0.57844">
        <ele>135.99939</ele>
        <time>2012-02-12T10:46:35Z</time>
      </trkpt>
      <trkpt lat="46.92458" lon="-0.57849">
        <ele>136.999374</ele>
        <time>2012-02-12T10:46:42Z</time>
      </trkpt>
      <trkpt lat="46.92466" lon="-0.57857">
        <ele>134.999344</ele>
        <time>2012-02-12T10:46:49Z</time>
      </trkpt>
      <trkpt lat="46.92467" lon="-0.57872">
        <ele>134.999237</ele>
        <time>2012-02-12T10:46:57Z</time>
      </trkpt>
      <trkpt lat="46.92465" lon="-0.57878">
        <ele>133.999176</ele>
        <time>2012-02-12T10:47:00Z</time>
      </trkpt>
      <trkpt lat="46.92459" lon="-0.57889">
        <ele>133.999054</ele>
        <time>2012-02-12T10:47:06Z</time>
      </trkpt>
      <trkpt lat="46.9245" lon="-0.57903">
        <ele>131.998917</ele>
        <time>2012-02-12T10:47:15Z</time>
      </trkpt>
      <trkpt lat="46.92444" lon="-0.57913">
        <ele>131.99881</ele>
        <time>2012-02-12T10:47:22Z</time>
      </trkpt>
      <trkpt lat="46.92437" lon="-0.57923">
        <ele>129.998703</ele>
        <time>2012-02-12T10:47:28Z</time>
      </trkpt>
      <trkpt lat="46.92431" lon="-0.57934">
        <ele>128.998596</ele>
        <time>2012-02-12T10:47:35Z</time>
      </trkpt>
      <trkpt lat="46.92424" lon="-0.57945">
        <ele>130.998474</ele>
        <time>2012-02-12T10:47:42Z</time>
      </trkpt>
      <trkpt lat="46.92418" lon="-0.57957">
        <ele>131.998352</ele>
        <time>2012-02-12T10:47:49Z</time>
      </trkpt>
      <trkpt lat="46.92417" lon="-0.5796">
        <ele>130.998322</ele>
        <time>2012-02-12T10:47:51Z</time>
      </trkpt>
      <trkpt lat="46.92412" lon="-0.57971">
        <ele>132.998199</ele>
        <time>2012-02-12T10:47:58Z</time>
      </trkpt>
      <trkpt lat="46.92408" lon="-0.57983">
        <ele>132.998093</ele>
        <time>2012-02-12T10:48:05Z</time>
      </trkpt>
      <trkpt lat="46.92403" lon="-0.57999">
        <ele>134.997955</ele>
        <time>2012-02-12T10:48:14Z</time>
      </trkpt>
      <trkpt lat="46.92399" lon="-0.58011">
        <ele>135.997849</ele>
        <time>2012-02-12T10:48:21Z</time>
      </trkpt>
      <trkpt lat="46.92395" lon="-0.58024">
        <ele>136.997726</ele>
        <time>2012-02-12T10:48:28Z</time>
      </trkpt>
      <trkpt lat="46.92391" lon="-0.58037">
        <ele>137.997604</ele>
        <time>2012-02-12T10:48:34Z</time>
      </trkpt>
      <trkpt lat="46.92386" lon="-0.5805">
        <ele>138.997467</ele>
        <time>2012-02-12T10:48:41Z</time>
      </trkpt>
      <trkpt lat="46.9238" lon="-0.58063">
        <ele>139.997345</ele>
        <time>2012-02-12T10:48:48Z</time>
      </trkpt>
      <trkpt lat="46.92375" lon="-0.58076">
        <ele>139.997223</ele>
        <time>2012-02-12T10:48:55Z</time>
      </trkpt>
      <trkpt lat="46.92367" lon="-0.58093">
        <ele>138.997055</ele>
        <time>2012-02-12T10:49:05Z</time>
      </trkpt>
      <trkpt lat="46.92361" lon="-0.58103">
        <ele>137.996933</ele>
        <time>2012-02-12T10:49:12Z</time>
      </trkpt>
      <trkpt lat="46.92355" lon="-0.58113">
        <ele>136.996826</ele>
        <time>2012-02-12T10:49:20Z</time>
      </trkpt>
      <trkpt lat="46.92347" lon="-0.58123">
        <ele>136.996719</ele>
        <time>2012-02-12T10:49:26Z</time>
      </trkpt>
      <trkpt lat="46.9234" lon="-0.58134">
        <ele>136.996613</ele>
        <time>2012-02-12T10:49:32Z</time>
      </trkpt>
      <trkpt lat="46.92335" lon="-0.58145">
        <ele>136.99649</ele>
        <time>2012-02-12T10:49:38Z</time>
      </trkpt>
      <trkpt lat="46.92327" lon="-0.58158">
        <ele>137.996353</ele>
        <time>2012-02-12T10:49:45Z</time>
      </trkpt>
      <trkpt lat="46.9232" lon="-0.58169">
        <ele>136.996246</ele>
        <time>2012-02-12T10:49:51Z</time>
      </trkpt>
      <trkpt lat="46.92314" lon="-0.5818">
        <ele>136.996124</ele>
        <time>2012-02-12T10:49:58Z</time>
      </trkpt>
      <trkpt lat="46.92306" lon="-0.5819">
        <ele>137.996002</ele>
        <time>2012-02-12T10:50:05Z</time>
      </trkpt>
      <trkpt lat="46.92296" lon="-0.58207">
        <ele>136.995834</ele>
        <time>2012-02-12T10:50:16Z</time>
      </trkpt>
      <trkpt lat="46.9229" lon="-0.58218">
        <ele>136.995728</ele>
        <time>2012-02-12T10:50:23Z</time>
      </trkpt>
      <trkpt lat="46.92286" lon="-0.5823">
        <ele>135.995605</ele>
        <time>2012-02-12T10:50:30Z</time>
      </trkpt>
      <trkpt lat="46.92283" lon="-0.58245">
        <ele>135.995483</ele>
        <time>2012-02-12T10:50:37Z</time>
      </trkpt>
      <trkpt lat="46.9228" lon="-0.58259">
        <ele>134.995361</ele>
        <time>2012-02-12T10:50:43Z</time>
      </trkpt>
      <trkpt lat="46.92276" lon="-0.58271">
        <ele>133.995224</ele>
        <time>2012-02-12T10:50:49Z</time>
      </trkpt>
      <trkpt lat="46.92272" lon="-0.58283">
        <ele>135.995117</ele>
        <time>2012-02-12T10:50:55Z</time>
      </trkpt>
      <trkpt lat="46.92269" lon="-0.58297">
        <ele>135.994995</ele>
        <time>2012-02-12T10:51:02Z</time>
      </trkpt>
      <trkpt lat="46.92265" lon="-0.58314">
        <ele>137.994843</ele>
        <time>2012-02-12T10:51:11Z</time>
      </trkpt>
      <trkpt lat="46.92262" lon="-0.58327">
        <ele>136.99472</ele>
        <time>2012-02-12T10:51:17Z</time>
      </trkpt>
      <trkpt lat="46.92257" lon="-0.58341">
        <ele>136.994598</ele>
        <time>2012-02-12T10:51:24Z</time>
      </trkpt>
      <trkpt lat="46.92254" lon="-0.58353">
        <ele>137.994476</ele>
        <time>2012-02-12T10:51:30Z</time>
      </trkpt>
      <trkpt lat="46.9225" lon="-0.58366">
        <ele>136.99437</ele>
        <time>2012-02-12T10:51:36Z</time>
      </trkpt>
      <trkpt lat="46.92245" lon="-0.58378">
        <ele>136.994247</ele>
        <time>2012-02-12T10:51:42Z</time>
      </trkpt>
      <trkpt lat="46.92241" lon="-0.5839">
        <ele>135.994141</ele>
        <time>2012-02-12T10:51:48Z</time>
      </trkpt>
      <trkpt lat="46.92236" lon="-0.58404">
        <ele>137.994019</ele>
        <time>2012-02-12T10:51:55Z</time>
      </trkpt>
      <trkpt lat="46.92231" lon="-0.58416">
        <ele>137.993881</ele>
        <time>2012-02-12T10:52:02Z</time>
      </trkpt>
      <trkpt lat="46.9223" lon="-0.58417">
        <ele>136.993866</ele>
        <time>2012-02-12T10:52:03Z</time>
      </trkpt>
      <trkpt lat="46.92224" lon="-0.58428">
        <ele>137.993759</ele>
        <time>2012-02-12T10:52:10Z</time>
      </trkpt>
      <trkpt lat="46.92213" lon="-0.58442">
        <ele>136.993607</ele>
        <time>2012-02-12T10:52:20Z</time>
      </trkpt>
      <trkpt lat="46.92207" lon="-0.58452">
        <ele>135.9935</ele>
        <time>2012-02-12T10:52:26Z</time>
      </trkpt>
      <trkpt lat="46.92206" lon="-0.58454">
        <ele>135.9935</ele>
        <time>2012-02-12T10:52:27Z</time>
      </trkpt>
      <trkpt lat="46.92204" lon="-0.58467">
        <ele>134.993378</ele>
        <time>2012-02-12T10:52:34Z</time>
      </trkpt>
      <trkpt lat="46.9221" lon="-0.58477">
        <ele>133.993317</ele>
        <time>2012-02-12T10:52:42Z</time>
      </trkpt>
      <trkpt lat="46.92218" lon="-0.58482">
        <ele>131.993317</ele>
        <time>2012-02-12T10:52:50Z</time>
      </trkpt>
      <trkpt lat="46.92237" lon="-0.5849">
        <ele>128.993317</ele>
        <time>2012-02-12T10:53:01Z</time>
      </trkpt>
      <trkpt lat="46.92246" lon="-0.58493">
        <ele>127.993332</ele>
        <time>2012-02-12T10:53:12Z</time>
      </trkpt>
      <trkpt lat="46.9225" lon="-0.58495">
        <ele>127.99334</ele>
        <time>2012-02-12T10:53:16Z</time>
      </trkpt>
      <trkpt lat="46.92264" lon="-0.58502">
        <ele>126.993332</ele>
        <time>2012-02-12T10:53:27Z</time>
      </trkpt>
      <trkpt lat="46.92274" lon="-0.58513">
        <ele>125.993286</ele>
        <time>2012-02-12T10:53:35Z</time>
      </trkpt>
      <trkpt lat="46.92276" lon="-0.58514">
        <ele>125.993294</ele>
        <time>2012-02-12T10:53:36Z</time>
      </trkpt>
      <trkpt lat="46.92284" lon="-0.58526">
        <ele>123.99324</ele>
        <time>2012-02-12T10:53:43Z</time>
      </trkpt>
      <trkpt lat="46.92299" lon="-0.58539">
        <ele>121.993195</ele>
        <time>2012-02-12T10:53:52Z</time>
      </trkpt>
      <trkpt lat="46.92308" lon="-0.58547">
        <ele>122.993172</ele>
        <time>2012-02-12T10:53:58Z</time>
      </trkpt>
      <trkpt lat="46.92325" lon="-0.58556">
        <ele>123.993172</ele>
        <time>2012-02-12T10:54:14Z</time>
      </trkpt>
      <trkpt lat="46.92336" lon="-0.58563">
        <ele>122.993149</ele>
        <time>2012-02-12T10:54:20Z</time>
      </trkpt>
      <trkpt lat="46.92338" lon="-0.58564">
        <ele>122.993149</ele>
        <time>2012-02-12T10:54:21Z</time>
      </trkpt>
      <trkpt lat="46.92354" lon="-0.58581">
        <ele>121.993088</ele>
        <time>2012-02-12T10:54:30Z</time>
      </trkpt>
      <trkpt lat="46.92361" lon="-0.58591">
        <ele>119.993027</ele>
        <time>2012-02-12T10:54:39Z</time>
      </trkpt>
      <trkpt lat="46.92369" lon="-0.58599">
        <ele>118.993004</ele>
        <time>2012-02-12T10:54:46Z</time>
      </trkpt>
      <trkpt lat="46.92378" lon="-0.58607">
        <ele>115.992981</ele>
        <time>2012-02-12T10:54:52Z</time>
      </trkpt>
      <trkpt lat="46.92379" lon="-0.58608">
        <ele>115.992973</ele>
        <time>2012-02-12T10:54:53Z</time>
      </trkpt>
      <trkpt lat="46.92388" lon="-0.58616">
        <ele>113.99295</ele>
        <time>2012-02-12T10:54:58Z</time>
      </trkpt>
      <trkpt lat="46.924" lon="-0.58626">
        <ele>111.99292</ele>
        <time>2012-02-12T10:55:05Z</time>
      </trkpt>
      <trkpt lat="46.92401" lon="-0.58628">
        <ele>111.992905</ele>
        <time>2012-02-12T10:55:06Z</time>
      </trkpt>
      <trkpt lat="46.92412" lon="-0.58636">
        <ele>113.992889</ele>
        <time>2012-02-12T10:55:15Z</time>
      </trkpt>
      <trkpt lat="46.92422" lon="-0.58643">
        <ele>111.992874</ele>
        <time>2012-02-12T10:55:24Z</time>
      </trkpt>
      <trkpt lat="46.92423" lon="-0.58644">
        <ele>111.992867</ele>
        <time>2012-02-12T10:55:25Z</time>
      </trkpt>
      <trkpt lat="46.92433" lon="-0.58653">
        <ele>104.992844</ele>
        <time>2012-02-12T10:55:32Z</time>
      </trkpt>
      <trkpt lat="46.92441" lon="-0.58661">
        <ele>104.992821</ele>
        <time>2012-02-12T10:55:38Z</time>
      </trkpt>
      <trkpt lat="46.9245" lon="-0.5867">
        <ele>103.992783</ele>
        <time>2012-02-12T10:55:44Z</time>
      </trkpt>
      <trkpt lat="46.92451" lon="-0.58671">
        <ele>103.992767</ele>
        <time>2012-02-12T10:55:45Z</time>
      </trkpt>
      <trkpt lat="46.92459" lon="-0.58678">
        <ele>102.99276</ele>
        <time>2012-02-12T10:55:50Z</time>
      </trkpt>
      <trkpt lat="46.92462" lon="-0.58681">
        <ele>102.992737</ele>
        <time>2012-02-12T10:55:52Z</time>
      </trkpt>
      <trkpt lat="46.9247" lon="-0.5869">
        <ele>101.992722</ele>
        <time>2012-02-12T10:56:05Z</time>
      </trkpt>
      <trkpt lat="46.92479" lon="-0.58697">
        <ele>100.992691</ele>
        <time>2012-02-12T10:56:10Z</time>
      </trkpt>
      <trkpt lat="46.92482" lon="-0.58699">
        <ele>100.992683</ele>
        <time>2012-02-12T10:56:12Z</time>
      </trkpt>
      <trkpt lat="46.92492" lon="-0.58708">
        <ele>100.992653</ele>
        <time>2012-02-12T10:56:23Z</time>
      </trkpt>
      <trkpt lat="46.92494" lon="-0.58709">
        <ele>100.992661</ele>
        <time>2012-02-12T10:56:25Z</time>
      </trkpt>
      <trkpt lat="46.92502" lon="-0.58713">
        <ele>98.992653</ele>
        <time>2012-02-12T10:56:30Z</time>
      </trkpt>
      <trkpt lat="46.92502" lon="-0.58713">
        <ele>98.992653</ele>
        <time>2012-02-12T10:56:31Z</time>
      </trkpt>
      <trkpt lat="46.92512" lon="-0.58716">
        <ele>96.992676</ele>
        <time>2012-02-12T10:56:37Z</time>
      </trkpt>
      <trkpt lat="46.92522" lon="-0.58719">
        <ele>96.992691</ele>
        <time>2012-02-12T10:56:43Z</time>
      </trkpt>
      <trkpt lat="46.92532" lon="-0.58721">
        <ele>96.992714</ele>
        <time>2012-02-12T10:56:48Z</time>
      </trkpt>
      <trkpt lat="46.92532" lon="-0.58721">
        <ele>96.992714</ele>
        <time>2012-02-12T10:56:49Z</time>
      </trkpt>
      <trkpt lat="46.9254" lon="-0.58724">
        <ele>95.992737</ele>
        <time>2012-02-12T10:57:01Z</time>
      </trkpt>
      <trkpt lat="46.92543" lon="-0.58724">
        <ele>95.992744</ele>
        <time>2012-02-12T10:57:03Z</time>
      </trkpt>
      <trkpt lat="46.92554" lon="-0.58723">
        <ele>97.992798</ele>
        <time>2012-02-12T10:57:11Z</time>
      </trkpt>
      <trkpt lat="46.92555" lon="-0.58723">
        <ele>98.992798</ele>
        <time>2012-02-12T10:57:12Z</time>
      </trkpt>
      <trkpt lat="46.92566" lon="-0.58723">
        <ele>98.992844</ele>
        <time>2012-02-12T10:57:20Z</time>
      </trkpt>
      <trkpt lat="46.92579" lon="-0.58722">
        <ele>97.992912</ele>
        <time>2012-02-12T10:57:27Z</time>
      </trkpt>
      <trkpt lat="46.92588" lon="-0.58721">
        <ele>96.99295</ele>
        <time>2012-02-12T10:57:32Z</time>
      </trkpt>
      <trkpt lat="46.9259" lon="-0.5872">
        <ele>96.992981</ele>
        <time>2012-02-12T10:57:33Z</time>
      </trkpt>
      <trkpt lat="46.92603" lon="-0.58719">
        <ele>96.99305</ele>
        <time>2012-02-12T10:57:42Z</time>
      </trkpt>
      <trkpt lat="46.92614" lon="-0.58717">
        <ele>94.993095</ele>
        <time>2012-02-12T10:57:49Z</time>
      </trkpt>
      <trkpt lat="46.92623" lon="-0.58717">
        <ele>93.993149</ele>
        <time>2012-02-12T10:57:54Z</time>
      </trkpt>
      <trkpt lat="46.92632" lon="-0.58715">
        <ele>95.993187</ele>
        <time>2012-02-12T10:57:59Z</time>
      </trkpt>
      <trkpt lat="46.92636" lon="-0.58715">
        <ele>95.993217</ele>
        <time>2012-02-12T10:58:03Z</time>
      </trkpt>
      <trkpt lat="46.92646" lon="-0.58714">
        <ele>97.993256</ele>
        <time>2012-02-12T10:58:08Z</time>
      </trkpt>
      <trkpt lat="46.92664" lon="-0.58713">
        <ele>99.99334</ele>
        <time>2012-02-12T10:58:20Z</time>
      </trkpt>
      <trkpt lat="46.92666" lon="-0.58713">
        <ele>99.993347</ele>
        <time>2012-02-12T10:58:21Z</time>
      </trkpt>
      <trkpt lat="46.92676" lon="-0.5872">
        <ele>98.993347</ele>
        <time>2012-02-12T10:58:28Z</time>
      </trkpt>
      <trkpt lat="46.9268" lon="-0.58734">
        <ele>99.99324</ele>
        <time>2012-02-12T10:58:34Z</time>
      </trkpt>
      <trkpt lat="46.92679" lon="-0.58744">
        <ele>100.993149</ele>
        <time>2012-02-12T10:58:38Z</time>
      </trkpt>
      <trkpt lat="46.92676" lon="-0.58759">
        <ele>101.993027</ele>
        <time>2012-02-12T10:58:44Z</time>
      </trkpt>
      <trkpt lat="46.92672" lon="-0.58772">
        <ele>101.992897</ele>
        <time>2012-02-12T10:58:50Z</time>
      </trkpt>
      <trkpt lat="46.92669" lon="-0.58786">
        <ele>102.992783</ele>
        <time>2012-02-12T10:58:56Z</time>
      </trkpt>
      <trkpt lat="46.92667" lon="-0.58801">
        <ele>103.992645</ele>
        <time>2012-02-12T10:59:02Z</time>
      </trkpt>
      <trkpt lat="46.92665" lon="-0.58815">
        <ele>104.992531</ele>
        <time>2012-02-12T10:59:08Z</time>
      </trkpt>
      <trkpt lat="46.92663" lon="-0.58829">
        <ele>103.992416</ele>
        <time>2012-02-12T10:59:15Z</time>
      </trkpt>
      <trkpt lat="46.92663" lon="-0.58842">
        <ele>104.99231</ele>
        <time>2012-02-12T10:59:22Z</time>
      </trkpt>
      <trkpt lat="46.92663" lon="-0.58858">
        <ele>105.992172</ele>
        <time>2012-02-12T10:59:31Z</time>
      </trkpt>
      <trkpt lat="46.92666" lon="-0.58874">
        <ele>104.992065</ele>
        <time>2012-02-12T10:59:40Z</time>
      </trkpt>
      <trkpt lat="46.92663" lon="-0.58888">
        <ele>104.991943</ele>
        <time>2012-02-12T10:59:47Z</time>
      </trkpt>
      <trkpt lat="46.9266" lon="-0.58901">
        <ele>104.991821</ele>
        <time>2012-02-12T10:59:53Z</time>
      </trkpt>
      <trkpt lat="46.92658" lon="-0.58915">
        <ele>106.991707</ele>
        <time>2012-02-12T11:00:00Z</time>
      </trkpt>
      <trkpt lat="46.92658" lon="-0.58929">
        <ele>106.991592</ele>
        <time>2012-02-12T11:00:07Z</time>
      </trkpt>
      <trkpt lat="46.92659" lon="-0.58946">
        <ele>107.991455</ele>
        <time>2012-02-12T11:00:15Z</time>
      </trkpt>
      <trkpt lat="46.92659" lon="-0.5896">
        <ele>108.991348</ele>
        <time>2012-02-12T11:00:21Z</time>
      </trkpt>
      <trkpt lat="46.9266" lon="-0.58973">
        <ele>110.991241</ele>
        <time>2012-02-12T11:00:27Z</time>
      </trkpt>
      <trkpt lat="46.92661" lon="-0.58988">
        <ele>110.991135</ele>
        <time>2012-02-12T11:00:34Z</time>
      </trkpt>
      <trkpt lat="46.92662" lon="-0.59005">
        <ele>110.990997</ele>
        <time>2012-02-12T11:00:43Z</time>
      </trkpt>
      <trkpt lat="46.92663" lon="-0.5902">
        <ele>112.990891</ele>
        <time>2012-02-12T11:00:50Z</time>
      </trkpt>
      <trkpt lat="46.92664" lon="-0.59034">
        <ele>112.990768</ele>
        <time>2012-02-12T11:00:57Z</time>
      </trkpt>
      <trkpt lat="46.92664" lon="-0.59048">
        <ele>112.990662</ele>
        <time>2012-02-12T11:01:04Z</time>
      </trkpt>
      <trkpt lat="46.92667" lon="-0.59068">
        <ele>114.990509</ele>
        <time>2012-02-12T11:01:14Z</time>
      </trkpt>
      <trkpt lat="46.92668" lon="-0.59082">
        <ele>112.990402</ele>
        <time>2012-02-12T11:01:22Z</time>
      </trkpt>
      <trkpt lat="46.92669" lon="-0.59095">
        <ele>113.990303</ele>
        <time>2012-02-12T11:01:28Z</time>
      </trkpt>
      <trkpt lat="46.92669" lon="-0.59097">
        <ele>113.990288</ele>
        <time>2012-02-12T11:01:29Z</time>
      </trkpt>
      <trkpt lat="46.9267" lon="-0.59111">
        <ele>112.990189</ele>
        <time>2012-02-12T11:01:35Z</time>
      </trkpt>
      <trkpt lat="46.92671" lon="-0.59126">
        <ele>113.990067</ele>
        <time>2012-02-12T11:01:42Z</time>
      </trkpt>
      <trkpt lat="46.92672" lon="-0.5914">
        <ele>114.989944</ele>
        <time>2012-02-12T11:01:48Z</time>
      </trkpt>
      <trkpt lat="46.92673" lon="-0.59154">
        <ele>116.989853</ele>
        <time>2012-02-12T11:01:54Z</time>
      </trkpt>
      <trkpt lat="46.92676" lon="-0.59167">
        <ele>116.989761</ele>
        <time>2012-02-12T11:02:01Z</time>
      </trkpt>
      <trkpt lat="46.92679" lon="-0.59181">
        <ele>117.989655</ele>
        <time>2012-02-12T11:02:09Z</time>
      </trkpt>
      <trkpt lat="46.92682" lon="-0.59194">
        <ele>117.989563</ele>
        <time>2012-02-12T11:02:16Z</time>
      </trkpt>
      <trkpt lat="46.92682" lon="-0.59196">
        <ele>118.989548</ele>
        <time>2012-02-12T11:02:17Z</time>
      </trkpt>
      <trkpt lat="46.92685" lon="-0.59209">
        <ele>118.989471</ele>
        <time>2012-02-12T11:02:25Z</time>
      </trkpt>
      <trkpt lat="46.92689" lon="-0.59223">
        <ele>119.989365</ele>
        <time>2012-02-12T11:02:32Z</time>
      </trkpt>
      <trkpt lat="46.92692" lon="-0.59237">
        <ele>121.989273</ele>
        <time>2012-02-12T11:02:39Z</time>
      </trkpt>
      <trkpt lat="46.92693" lon="-0.59247">
        <ele>122.989197</ele>
        <time>2012-02-12T11:02:44Z</time>
      </trkpt>
      <trkpt lat="46.92695" lon="-0.59261">
        <ele>123.98909</ele>
        <time>2012-02-12T11:02:51Z</time>
      </trkpt>
      <trkpt lat="46.92695" lon="-0.59266">
        <ele>123.989044</ele>
        <time>2012-02-12T11:02:53Z</time>
      </trkpt>
      <trkpt lat="46.92697" lon="-0.59281">
        <ele>122.988937</ele>
        <time>2012-02-12T11:03:00Z</time>
      </trkpt>
      <trkpt lat="46.92702" lon="-0.59301">
        <ele>122.9888</ele>
        <time>2012-02-12T11:03:10Z</time>
      </trkpt>
      <trkpt lat="46.92706" lon="-0.59313">
        <ele>121.988724</ele>
        <time>2012-02-12T11:03:16Z</time>
      </trkpt>
      <trkpt lat="46.92711" lon="-0.59332">
        <ele>118.988586</ele>
        <time>2012-02-12T11:03:25Z</time>
      </trkpt>
      <trkpt lat="46.92715" lon="-0.59344">
        <ele>116.988518</ele>
        <time>2012-02-12T11:03:31Z</time>
      </trkpt>
      <trkpt lat="46.9272" lon="-0.59363">
        <ele>114.98838</ele>
        <time>2012-02-12T11:03:40Z</time>
      </trkpt>
      <trkpt lat="46.92723" lon="-0.59376">
        <ele>113.988289</ele>
        <time>2012-02-12T11:03:46Z</time>
      </trkpt>
      <trkpt lat="46.92727" lon="-0.5939">
        <ele>113.988174</ele>
        <time>2012-02-12T11:03:53Z</time>
      </trkpt>
      <trkpt lat="46.92729" lon="-0.59404">
        <ele>113.988083</ele>
        <time>2012-02-12T11:03:59Z</time>
      </trkpt>
      <trkpt lat="46.92731" lon="-0.59419">
        <ele>112.987976</ele>
        <time>2012-02-12T11:04:06Z</time>
      </trkpt>
      <trkpt lat="46.92733" lon="-0.59433">
        <ele>111.987877</ele>
        <time>2012-02-12T11:04:13Z</time>
      </trkpt>
      <trkpt lat="46.92734" lon="-0.59447">
        <ele>112.987762</ele>
        <time>2012-02-12T11:04:19Z</time>
      </trkpt>
      <trkpt lat="46.92736" lon="-0.59461">
        <ele>110.987656</ele>
        <time>2012-02-12T11:04:26Z</time>
      </trkpt>
      <trkpt lat="46.92741" lon="-0.59481">
        <ele>109.987518</ele>
        <time>2012-02-12T11:04:37Z</time>
      </trkpt>
      <trkpt lat="46.92745" lon="-0.59495">
        <ele>108.987411</ele>
        <time>2012-02-12T11:04:44Z</time>
      </trkpt>
      <trkpt lat="46.92749" lon="-0.5951">
        <ele>106.987328</ele>
        <time>2012-02-12T11:04:53Z</time>
      </trkpt>
      <trkpt lat="46.92755" lon="-0.59522">
        <ele>106.987251</ele>
        <time>2012-02-12T11:05:02Z</time>
      </trkpt>
      <trkpt lat="46.92758" lon="-0.59542">
        <ele>105.987106</ele>
        <time>2012-02-12T11:05:14Z</time>
      </trkpt>
      <trkpt lat="46.92761" lon="-0.59556">
        <ele>105.987</ele>
        <time>2012-02-12T11:05:21Z</time>
      </trkpt>
      <trkpt lat="46.92764" lon="-0.59571">
        <ele>106.986908</ele>
        <time>2012-02-12T11:05:28Z</time>
      </trkpt>
      <trkpt lat="46.9277" lon="-0.59592">
        <ele>105.986763</ele>
        <time>2012-02-12T11:05:38Z</time>
      </trkpt>
      <trkpt lat="46.92774" lon="-0.59604">
        <ele>105.986671</ele>
        <time>2012-02-12T11:05:44Z</time>
      </trkpt>
      <trkpt lat="46.92778" lon="-0.59619">
        <ele>105.986588</ele>
        <time>2012-02-12T11:05:55Z</time>
      </trkpt>
      <trkpt lat="46.92783" lon="-0.59632">
        <ele>104.986496</ele>
        <time>2012-02-12T11:06:02Z</time>
      </trkpt>
      <trkpt lat="46.92787" lon="-0.59646">
        <ele>105.986404</ele>
        <time>2012-02-12T11:06:08Z</time>
      </trkpt>
      <trkpt lat="46.92791" lon="-0.59661">
        <ele>105.986298</ele>
        <time>2012-02-12T11:06:15Z</time>
      </trkpt>
      <trkpt lat="46.92796" lon="-0.59674">
        <ele>104.986214</ele>
        <time>2012-02-12T11:06:22Z</time>
      </trkpt>
      <trkpt lat="46.92799" lon="-0.59688">
        <ele>105.986115</ele>
        <time>2012-02-12T11:06:29Z</time>
      </trkpt>
      <trkpt lat="46.92802" lon="-0.59707">
        <ele>106.985962</ele>
        <time>2012-02-12T11:06:39Z</time>
      </trkpt>
      <trkpt lat="46.92802" lon="-0.59722">
        <ele>107.985855</ele>
        <time>2012-02-12T11:06:47Z</time>
      </trkpt>
      <trkpt lat="46.92797" lon="-0.59734">
        <ele>107.985733</ele>
        <time>2012-02-12T11:06:53Z</time>
      </trkpt>
      <trkpt lat="46.92791" lon="-0.59746">
        <ele>107.985611</ele>
        <time>2012-02-12T11:07:00Z</time>
      </trkpt>
      <trkpt lat="46.92785" lon="-0.59758">
        <ele>108.985504</ele>
        <time>2012-02-12T11:07:08Z</time>
      </trkpt>
      <trkpt lat="46.92797" lon="-0.59769">
        <ele>104.985451</ele>
        <time>2012-02-12T11:07:19Z</time>
      </trkpt>
      <trkpt lat="46.92806" lon="-0.59765">
        <ele>104.985519</ele>
        <time>2012-02-12T11:07:24Z</time>
      </trkpt>
      <trkpt lat="46.92808" lon="-0.59765">
        <ele>104.985535</ele>
        <time>2012-02-12T11:07:25Z</time>
      </trkpt>
      <trkpt lat="46.92822" lon="-0.59762">
        <ele>104.985626</ele>
        <time>2012-02-12T11:07:34Z</time>
      </trkpt>
      <trkpt lat="46.92833" lon="-0.5976">
        <ele>102.98568</ele>
        <time>2012-02-12T11:07:41Z</time>
      </trkpt>
      <trkpt lat="46.92844" lon="-0.59749">
        <ele>101.985825</ele>
        <time>2012-02-12T11:07:51Z</time>
      </trkpt>
      <trkpt lat="46.92853" lon="-0.59729">
        <ele>103.986008</ele>
        <time>2012-02-12T11:08:01Z</time>
      </trkpt>
      <trkpt lat="46.9286" lon="-0.59718">
        <ele>105.98613</ele>
        <time>2012-02-12T11:08:08Z</time>
      </trkpt>
      <trkpt lat="46.9287" lon="-0.59707">
        <ele>105.986252</ele>
        <time>2012-02-12T11:08:17Z</time>
      </trkpt>
      <trkpt lat="46.92877" lon="-0.59699">
        <ele>104.986343</ele>
        <time>2012-02-12T11:08:24Z</time>
      </trkpt>
      <trkpt lat="46.92887" lon="-0.59692">
        <ele>101.98645</ele>
        <time>2012-02-12T11:08:34Z</time>
      </trkpt>
      <trkpt lat="46.92895" lon="-0.59685">
        <ele>100.986542</ele>
        <time>2012-02-12T11:08:42Z</time>
      </trkpt>
      <trkpt lat="46.92903" lon="-0.59678">
        <ele>101.986618</ele>
        <time>2012-02-12T11:08:49Z</time>
      </trkpt>
      <trkpt lat="46.92911" lon="-0.59672">
        <ele>100.986725</ele>
        <time>2012-02-12T11:08:55Z</time>
      </trkpt>
      <trkpt lat="46.9292" lon="-0.59666">
        <ele>99.986801</ele>
        <time>2012-02-12T11:09:01Z</time>
      </trkpt>
      <trkpt lat="46.92929" lon="-0.5966">
        <ele>99.986885</ele>
        <time>2012-02-12T11:09:07Z</time>
      </trkpt>
      <trkpt lat="46.92938" lon="-0.59657">
        <ele>98.986954</ele>
        <time>2012-02-12T11:09:14Z</time>
      </trkpt>
      <trkpt lat="46.92942" lon="-0.59653">
        <ele>98.987</ele>
        <time>2012-02-12T11:09:18Z</time>
      </trkpt>
      <trkpt lat="46.92951" lon="-0.59644">
        <ele>98.987114</ele>
        <time>2012-02-12T11:09:25Z</time>
      </trkpt>
      <trkpt lat="46.9296" lon="-0.59636">
        <ele>100.987198</ele>
        <time>2012-02-12T11:09:34Z</time>
      </trkpt>
      <trkpt lat="46.92969" lon="-0.59631">
        <ele>99.987282</ele>
        <time>2012-02-12T11:09:42Z</time>
      </trkpt>
      <trkpt lat="46.92979" lon="-0.59624">
        <ele>99.987381</ele>
        <time>2012-02-12T11:09:48Z</time>
      </trkpt>
      <trkpt lat="46.92981" lon="-0.59621">
        <ele>99.987411</ele>
        <time>2012-02-12T11:09:50Z</time>
      </trkpt>
      <trkpt lat="46.92989" lon="-0.59614">
        <ele>97.987503</ele>
        <time>2012-02-12T11:09:57Z</time>
      </trkpt>
      <trkpt lat="46.92997" lon="-0.59607">
        <ele>96.987595</ele>
        <time>2012-02-12T11:10:06Z</time>
      </trkpt>
      <trkpt lat="46.92998" lon="-0.59607">
        <ele>96.987602</ele>
        <time>2012-02-12T11:10:07Z</time>
      </trkpt>
      <trkpt lat="46.93012" lon="-0.59595">
        <ele>98.987755</ele>
        <time>2012-02-12T11:10:20Z</time>
      </trkpt>
      <trkpt lat="46.9302" lon="-0.59588">
        <ele>97.987846</ele>
        <time>2012-02-12T11:10:26Z</time>
      </trkpt>
      <trkpt lat="46.93029" lon="-0.59581">
        <ele>97.987953</ele>
        <time>2012-02-12T11:10:33Z</time>
      </trkpt>
      <trkpt lat="46.93031" lon="-0.5958">
        <ele>96.987961</ele>
        <time>2012-02-12T11:10:34Z</time>
      </trkpt>
      <trkpt lat="46.93042" lon="-0.59574">
        <ele>96.988052</ele>
        <time>2012-02-12T11:10:42Z</time>
      </trkpt>
      <trkpt lat="46.93052" lon="-0.59569">
        <ele>96.988129</ele>
        <time>2012-02-12T11:10:49Z</time>
      </trkpt>
      <trkpt lat="46.93066" lon="-0.59558">
        <ele>97.988274</ele>
        <time>2012-02-12T11:11:02Z</time>
      </trkpt>
      <trkpt lat="46.93071" lon="-0.59556">
        <ele>98.988327</ele>
        <time>2012-02-12T11:11:05Z</time>
      </trkpt>
      <trkpt lat="46.93079" lon="-0.59552">
        <ele>99.988388</ele>
        <time>2012-02-12T11:11:11Z</time>
      </trkpt>
      <trkpt lat="46.9309" lon="-0.59545">
        <ele>101.98848</ele>
        <time>2012-02-12T11:11:19Z</time>
      </trkpt>
      <trkpt lat="46.93099" lon="-0.59539">
        <ele>101.988579</ele>
        <time>2012-02-12T11:11:26Z</time>
      </trkpt>
      <trkpt lat="46.93107" lon="-0.59532">
        <ele>100.988663</ele>
        <time>2012-02-12T11:11:32Z</time>
      </trkpt>
      <trkpt lat="46.93117" lon="-0.59525">
        <ele>101.988762</ele>
        <time>2012-02-12T11:11:39Z</time>
      </trkpt>
      <trkpt lat="46.93127" lon="-0.59518">
        <ele>101.988853</ele>
        <time>2012-02-12T11:11:46Z</time>
      </trkpt>
      <trkpt lat="46.93135" lon="-0.59513">
        <ele>101.988937</ele>
        <time>2012-02-12T11:11:52Z</time>
      </trkpt>
      <trkpt lat="46.93149" lon="-0.59506">
        <ele>98.989044</ele>
        <time>2012-02-12T11:12:03Z</time>
      </trkpt>
      <trkpt lat="46.93157" lon="-0.59501">
        <ele>97.989113</ele>
        <time>2012-02-12T11:12:10Z</time>
      </trkpt>
      <trkpt lat="46.93158" lon="-0.59501">
        <ele>97.989136</ele>
        <time>2012-02-12T11:12:11Z</time>
      </trkpt>
      <trkpt lat="46.93167" lon="-0.59496">
        <ele>98.989204</ele>
        <time>2012-02-12T11:12:18Z</time>
      </trkpt>
      <trkpt lat="46.93168" lon="-0.59495">
        <ele>98.989212</ele>
        <time>2012-02-12T11:12:19Z</time>
      </trkpt>
      <trkpt lat="46.93177" lon="-0.59488">
        <ele>100.989304</ele>
        <time>2012-02-12T11:12:31Z</time>
      </trkpt>
      <trkpt lat="46.93185" lon="-0.59479">
        <ele>99.98941</ele>
        <time>2012-02-12T11:12:40Z</time>
      </trkpt>
      <trkpt lat="46.93197" lon="-0.59469">
        <ele>100.989548</ele>
        <time>2012-02-12T11:12:52Z</time>
      </trkpt>
      <trkpt lat="46.93206" lon="-0.59462">
        <ele>100.989639</ele>
        <time>2012-02-12T11:12:59Z</time>
      </trkpt>
      <trkpt lat="46.93207" lon="-0.59461">
        <ele>100.989639</ele>
        <time>2012-02-12T11:13:00Z</time>
      </trkpt>
      <trkpt lat="46.93223" lon="-0.59448">
        <ele>103.989822</ele>
        <time>2012-02-12T11:13:10Z</time>
      </trkpt>
      <trkpt lat="46.9323" lon="-0.59441">
        <ele>102.989914</ele>
        <time>2012-02-12T11:13:15Z</time>
      </trkpt>
      <trkpt lat="46.93245" lon="-0.59426">
        <ele>104.990097</ele>
        <time>2012-02-12T11:13:26Z</time>
      </trkpt>
      <trkpt lat="46.93253" lon="-0.59419">
        <ele>103.990181</ele>
        <time>2012-02-12T11:13:32Z</time>
      </trkpt>
      <trkpt lat="46.93261" lon="-0.59411">
        <ele>102.990273</ele>
        <time>2012-02-12T11:13:39Z</time>
      </trkpt>
      <trkpt lat="46.9327" lon="-0.59404">
        <ele>101.990372</ele>
        <time>2012-02-12T11:13:46Z</time>
      </trkpt>
      <trkpt lat="46.93285" lon="-0.59395">
        <ele>99.990509</ele>
        <time>2012-02-12T11:13:58Z</time>
      </trkpt>
      <trkpt lat="46.93292" lon="-0.59386">
        <ele>98.990616</ele>
        <time>2012-02-12T11:14:09Z</time>
      </trkpt>
      <trkpt lat="46.93301" lon="-0.59378">
        <ele>99.990715</ele>
        <time>2012-02-12T11:14:17Z</time>
      </trkpt>
      <trkpt lat="46.93313" lon="-0.59369">
        <ele>100.990845</ele>
        <time>2012-02-12T11:14:25Z</time>
      </trkpt>
      <trkpt lat="46.9332" lon="-0.59361">
        <ele>100.990936</ele>
        <time>2012-02-12T11:14:33Z</time>
      </trkpt>
      <trkpt lat="46.93328" lon="-0.59355">
        <ele>98.991013</ele>
        <time>2012-02-12T11:14:42Z</time>
      </trkpt>
      <trkpt lat="46.93332" lon="-0.59352">
        <ele>97.991066</ele>
        <time>2012-02-12T11:14:47Z</time>
      </trkpt>
      <trkpt lat="46.93347" lon="-0.59337">
        <ele>95.991249</ele>
        <time>2012-02-12T11:14:59Z</time>
      </trkpt>
      <trkpt lat="46.93352" lon="-0.59325">
        <ele>95.991348</ele>
        <time>2012-02-12T11:15:03Z</time>
      </trkpt>
      <trkpt lat="46.93362" lon="-0.59308">
        <ele>97.991547</ele>
        <time>2012-02-12T11:15:12Z</time>
      </trkpt>
      <trkpt lat="46.9337" lon="-0.59299">
        <ele>98.991638</ele>
        <time>2012-02-12T11:15:18Z</time>
      </trkpt>
      <trkpt lat="46.93372" lon="-0.59297">
        <ele>98.991653</ele>
        <time>2012-02-12T11:15:19Z</time>
      </trkpt>
      <trkpt lat="46.93384" lon="-0.59285">
        <ele>99.991798</ele>
        <time>2012-02-12T11:15:28Z</time>
      </trkpt>
      <trkpt lat="46.93393" lon="-0.59278">
        <ele>97.991898</ele>
        <time>2012-02-12T11:15:35Z</time>
      </trkpt>
      <trkpt lat="46.93401" lon="-0.59271">
        <ele>97.991989</ele>
        <time>2012-02-12T11:15:41Z</time>
      </trkpt>
      <trkpt lat="46.93408" lon="-0.59263">
        <ele>97.992081</ele>
        <time>2012-02-12T11:15:49Z</time>
      </trkpt>
      <trkpt lat="46.93418" lon="-0.59252">
        <ele>97.992226</ele>
        <time>2012-02-12T11:15:57Z</time>
      </trkpt>
      <trkpt lat="46.93426" lon="-0.59243">
        <ele>97.992317</ele>
        <time>2012-02-12T11:16:02Z</time>
      </trkpt>
      <trkpt lat="46.9344" lon="-0.59229">
        <ele>96.992493</ele>
        <time>2012-02-12T11:16:11Z</time>
      </trkpt>
      <trkpt lat="46.9345" lon="-0.59217">
        <ele>96.99263</ele>
        <time>2012-02-12T11:16:21Z</time>
      </trkpt>
      <trkpt lat="46.93459" lon="-0.59211">
        <ele>97.992714</ele>
        <time>2012-02-12T11:16:28Z</time>
      </trkpt>
      <trkpt lat="46.93467" lon="-0.59204">
        <ele>99.992813</ele>
        <time>2012-02-12T11:16:35Z</time>
      </trkpt>
      <trkpt lat="46.93478" lon="-0.59196">
        <ele>100.99292</ele>
        <time>2012-02-12T11:16:48Z</time>
      </trkpt>
      <trkpt lat="46.93488" lon="-0.59189">
        <ele>98.993019</ele>
        <time>2012-02-12T11:16:56Z</time>
      </trkpt>
      <trkpt lat="46.93502" lon="-0.59177">
        <ele>100.993172</ele>
        <time>2012-02-12T11:17:06Z</time>
      </trkpt>
      <trkpt lat="46.93511" lon="-0.59167">
        <ele>101.993301</ele>
        <time>2012-02-12T11:17:12Z</time>
      </trkpt>
      <trkpt lat="46.93524" lon="-0.59152">
        <ele>102.993469</ele>
        <time>2012-02-12T11:17:20Z</time>
      </trkpt>
      <trkpt lat="46.93532" lon="-0.59144">
        <ele>101.993561</ele>
        <time>2012-02-12T11:17:26Z</time>
      </trkpt>
      <trkpt lat="46.93542" lon="-0.59135">
        <ele>102.993683</ele>
        <time>2012-02-12T11:17:34Z</time>
      </trkpt>
      <trkpt lat="46.93551" lon="-0.59126">
        <ele>102.99379</ele>
        <time>2012-02-12T11:17:41Z</time>
      </trkpt>
      <trkpt lat="46.93558" lon="-0.59119">
        <ele>104.993881</ele>
        <time>2012-02-12T11:17:52Z</time>
      </trkpt>
      <trkpt lat="46.93575" lon="-0.59107">
        <ele>104.994049</ele>
        <time>2012-02-12T11:18:09Z</time>
      </trkpt>
      <trkpt lat="46.93576" lon="-0.59105">
        <ele>104.994064</ele>
        <time>2012-02-12T11:18:10Z</time>
      </trkpt>
      <trkpt lat="46.9359" lon="-0.59089">
        <ele>105.994263</ele>
        <time>2012-02-12T11:18:20Z</time>
      </trkpt>
      <trkpt lat="46.936" lon="-0.59081">
        <ele>105.994362</ele>
        <time>2012-02-12T11:18:26Z</time>
      </trkpt>
      <trkpt lat="46.93605" lon="-0.59077">
        <ele>105.994423</ele>
        <time>2012-02-12T11:18:29Z</time>
      </trkpt>
      <trkpt lat="46.93614" lon="-0.5907">
        <ele>105.994507</ele>
        <time>2012-02-12T11:18:34Z</time>
      </trkpt>
      <trkpt lat="46.93628" lon="-0.59063">
        <ele>102.994621</ele>
        <time>2012-02-12T11:18:46Z</time>
      </trkpt>
      <trkpt lat="46.93629" lon="-0.59062">
        <ele>102.994629</ele>
        <time>2012-02-12T11:18:47Z</time>
      </trkpt>
      <trkpt lat="46.93643" lon="-0.59058">
        <ele>103.99472</ele>
        <time>2012-02-12T11:18:56Z</time>
      </trkpt>
      <trkpt lat="46.93652" lon="-0.59053">
        <ele>103.994797</ele>
        <time>2012-02-12T11:19:05Z</time>
      </trkpt>
      <trkpt lat="46.93668" lon="-0.59045">
        <ele>106.994949</ele>
        <time>2012-02-12T11:19:20Z</time>
      </trkpt>
      <trkpt lat="46.93699" lon="-0.59058">
        <ele>117.994957</ele>
        <time>2012-02-12T11:20:25Z</time>
      </trkpt>
      <trkpt lat="46.93699" lon="-0.59058">
        <ele>117.994957</ele>
        <time>2012-02-12T11:20:25Z</time>
      </trkpt>
      <trkpt lat="46.93699" lon="-0.59058">
        <ele>117.994957</ele>
        <time>2012-02-12T11:20:26Z</time>
      </trkpt>
      <trkpt lat="46.937" lon="-0.59058">
        <ele>119.994957</ele>
        <time>2012-02-12T11:20:27Z</time>
      </trkpt>
      <trkpt lat="46.93701" lon="-0.59058">
        <ele>119.994965</ele>
        <time>2012-02-12T11:20:28Z</time>
      </trkpt>
      <trkpt lat="46.93702" lon="-0.59058">
        <ele>119.994965</ele>
        <time>2012-02-12T11:20:29Z</time>
      </trkpt>
      <trkpt lat="46.93703" lon="-0.59058">
        <ele>119.994972</ele>
        <time>2012-02-12T11:20:30Z</time>
      </trkpt>
      <trkpt lat="46.93703" lon="-0.59058">
        <ele>119.994972</ele>
        <time>2012-02-12T11:20:31Z</time>
      </trkpt>
      <trkpt lat="46.93703" lon="-0.59058">
        <ele>119.994972</ele>
        <time>2012-02-12T11:20:32Z</time>
      </trkpt>
      <trkpt lat="46.93703" lon="-0.59058">
        <ele>119.994972</ele>
        <time>2012-02-12T11:20:33Z</time>
      </trkpt>
      <trkpt lat="46.93703" lon="-0.59058">
        <ele>119.994972</ele>
        <time>2012-02-12T11:20:34Z</time>
      </trkpt>
      <trkpt lat="46.93703" lon="-0.59058">
        <ele>119.994972</ele>
        <time>2012-02-12T11:20:35Z</time>
      </trkpt>
      <trkpt lat="46.93712" lon="-0.59063">
        <ele>119.99498</ele>
        <time>2012-02-12T11:20:37Z</time>
      </trkpt>
      <trkpt lat="46.93723" lon="-0.59066">
        <ele>116.994995</ele>
        <time>2012-02-12T11:20:45Z</time>
      </trkpt>
      <trkpt lat="46.93732" lon="-0.59067">
        <ele>115.995033</ele>
        <time>2012-02-12T11:20:58Z</time>
      </trkpt>
      <trkpt lat="46.93742" lon="-0.59066">
        <ele>117.995071</ele>
        <time>2012-02-12T11:21:05Z</time>
      </trkpt>
      <trkpt lat="46.93752" lon="-0.59064">
        <ele>118.995148</ele>
        <time>2012-02-12T11:21:09Z</time>
      </trkpt>
      <trkpt lat="46.93762" lon="-0.59062">
        <ele>117.995209</ele>
        <time>2012-02-12T11:21:13Z</time>
      </trkpt>
      <trkpt lat="46.93772" lon="-0.5906">
        <ele>114.995262</ele>
        <time>2012-02-12T11:21:18Z</time>
      </trkpt>
      <trkpt lat="46.93774" lon="-0.5906">
        <ele>114.99527</ele>
        <time>2012-02-12T11:21:19Z</time>
      </trkpt>
      <trkpt lat="46.93783" lon="-0.59059">
        <ele>117.995308</ele>
        <time>2012-02-12T11:21:24Z</time>
      </trkpt>
      <trkpt lat="46.938" lon="-0.59064">
        <ele>123.995338</ele>
        <time>2012-02-12T11:21:34Z</time>
      </trkpt>
      <trkpt lat="46.93805" lon="-0.59066">
        <ele>123.995346</ele>
        <time>2012-02-12T11:21:40Z</time>
      </trkpt>
      <trkpt lat="46.93815" lon="-0.59072">
        <ele>124.995354</ele>
        <time>2012-02-12T11:21:43Z</time>
      </trkpt>
      <trkpt lat="46.93827" lon="-0.59074">
        <ele>125.995377</ele>
        <time>2012-02-12T11:21:50Z</time>
      </trkpt>
      <trkpt lat="46.93842" lon="-0.59074">
        <ele>123.995438</ele>
        <time>2012-02-12T11:22:02Z</time>
      </trkpt>
    </trkseg>
  </trk>
</gpx>